<?xml version="1.0" encoding="UTF-8" standalone="no" ?>
<gpx xmlns="http://www.topografix.com/GPX/1/1" xmlns:xsi="http://www.w3.org/2001/XMLSchema-instance" xsi:schemaLocation="http://www.topografix.com/GPX/1/1 http://www.topografix.com/GPX/1/1/gpx.xsd" version="1.1" creator="VisuGPX - https://www.visugpx.com">
  <metadata>
    <name>Juré 18km</name>
    <desc><![CDATA[29/05/2015 au départ de Terge ( lieu privé) via le viaduc]]></desc>
  </metadata>
  <trk>
    <name><![CDATA[2015-05-29 19:02:05]]></name>
    <extensions>
      <line xmlns="http://www.topografix.com/GPX/gpx_style/0/2">
        <color>0000FF</color>
        <width>4</width>
      </line>
    </extensions>
    <trkseg>
      <trkpt lat="45.86801" lon="3.91882">
        <ele>598.08</ele>
        <time>2015-05-23T16:16:53Z</time>
      </trkpt>
      <trkpt lat="45.86801" lon="3.91883">
        <ele>598.08</ele>
        <time>2015-05-23T16:16:57Z</time>
      </trkpt>
      <trkpt lat="45.868" lon="3.91881">
        <ele>598.56</ele>
        <time>2015-05-24T09:29:02Z</time>
      </trkpt>
      <trkpt lat="45.87274" lon="3.91101">
        <ele>587.98</ele>
        <time>2015-05-24T09:29:10Z</time>
      </trkpt>
      <trkpt lat="45.87273" lon="3.91056">
        <ele>573.08</ele>
        <time>2015-05-24T09:29:27Z</time>
      </trkpt>
      <trkpt lat="45.87273" lon="3.91015">
        <ele>568.28</ele>
        <time>2015-05-24T09:29:46Z</time>
      </trkpt>
      <trkpt lat="45.87273" lon="3.90976">
        <ele>563.95</ele>
        <time>2015-05-24T09:30:03Z</time>
      </trkpt>
      <trkpt lat="45.87277" lon="3.90934">
        <ele>558.18</ele>
        <time>2015-05-24T09:30:23Z</time>
      </trkpt>
      <trkpt lat="45.87279" lon="3.90901">
        <ele>554.82</ele>
        <time>2015-05-24T09:30:40Z</time>
      </trkpt>
      <trkpt lat="45.87283" lon="3.90859">
        <ele>552.9</ele>
        <time>2015-05-24T09:31:01Z</time>
      </trkpt>
      <trkpt lat="45.87288" lon="3.90812">
        <ele>552.41</ele>
        <time>2015-05-24T09:31:23Z</time>
      </trkpt>
      <trkpt lat="45.87298" lon="3.90776">
        <ele>547.61</ele>
        <time>2015-05-24T09:31:42Z</time>
      </trkpt>
      <trkpt lat="45.87304" lon="3.90736">
        <ele>547.13</ele>
        <time>2015-05-24T09:32:02Z</time>
      </trkpt>
      <trkpt lat="45.87309" lon="3.90692">
        <ele>547.61</ele>
        <time>2015-05-24T09:32:22Z</time>
      </trkpt>
      <trkpt lat="45.87313" lon="3.90643">
        <ele>545.69</ele>
        <time>2015-05-24T09:32:43Z</time>
      </trkpt>
      <trkpt lat="45.87313" lon="3.90601">
        <ele>545.2</ele>
        <time>2015-05-24T09:33:03Z</time>
      </trkpt>
      <trkpt lat="45.87314" lon="3.90598">
        <ele>544.72</ele>
        <time>2015-05-24T09:33:04Z</time>
      </trkpt>
      <trkpt lat="45.8743" lon="3.90614">
        <ele>544.24</ele>
        <time>2015-05-24T09:34:10Z</time>
      </trkpt>
      <trkpt lat="45.87444" lon="3.9064">
        <ele>538.48</ele>
        <time>2015-05-24T09:34:25Z</time>
      </trkpt>
      <trkpt lat="45.87427" lon="3.90679">
        <ele>535.59</ele>
        <time>2015-05-24T09:34:41Z</time>
      </trkpt>
      <trkpt lat="45.87428" lon="3.90684">
        <ele>535.11</ele>
        <time>2015-05-24T09:34:44Z</time>
      </trkpt>
      <trkpt lat="45.87428" lon="3.90686">
        <ele>535.11</ele>
        <time>2015-05-24T09:34:45Z</time>
      </trkpt>
      <trkpt lat="45.87428" lon="3.90689">
        <ele>535.11</ele>
        <time>2015-05-24T09:34:46Z</time>
      </trkpt>
      <trkpt lat="45.87439" lon="3.90723">
        <ele>532.23</ele>
        <time>2015-05-24T09:35:02Z</time>
      </trkpt>
      <trkpt lat="45.87457" lon="3.90748">
        <ele>530.3</ele>
        <time>2015-05-24T09:35:22Z</time>
      </trkpt>
      <trkpt lat="45.87467" lon="3.90759">
        <ele>533.67</ele>
        <time>2015-05-24T09:35:39Z</time>
      </trkpt>
      <trkpt lat="45.87494" lon="3.90775">
        <ele>539.44</ele>
        <time>2015-05-24T09:36:00Z</time>
      </trkpt>
      <trkpt lat="45.875" lon="3.9078">
        <ele>539.92</ele>
        <time>2015-05-24T09:36:04Z</time>
      </trkpt>
      <trkpt lat="45.8752" lon="3.90815">
        <ele>539.44</ele>
        <time>2015-05-24T09:36:26Z</time>
      </trkpt>
      <trkpt lat="45.87532" lon="3.90821">
        <ele>540.4</ele>
        <time>2015-05-24T09:36:43Z</time>
      </trkpt>
      <trkpt lat="45.87558" lon="3.90825">
        <ele>543.76</ele>
        <time>2015-05-24T09:37:03Z</time>
      </trkpt>
      <trkpt lat="45.87572" lon="3.90825">
        <ele>546.65</ele>
        <time>2015-05-24T09:37:23Z</time>
      </trkpt>
      <trkpt lat="45.87587" lon="3.90826">
        <ele>549.53</ele>
        <time>2015-05-24T09:37:46Z</time>
      </trkpt>
      <trkpt lat="45.87591" lon="3.90824">
        <ele>551.45</ele>
        <time>2015-05-24T09:38:06Z</time>
      </trkpt>
      <trkpt lat="45.87592" lon="3.9081">
        <ele>556.74</ele>
        <time>2015-05-24T09:38:18Z</time>
      </trkpt>
      <trkpt lat="45.87593" lon="3.90783">
        <ele>561.55</ele>
        <time>2015-05-24T09:38:34Z</time>
      </trkpt>
      <trkpt lat="45.87592" lon="3.90759">
        <ele>563.95</ele>
        <time>2015-05-24T09:38:51Z</time>
      </trkpt>
      <trkpt lat="45.87592" lon="3.90739">
        <ele>563.47</ele>
        <time>2015-05-24T09:39:04Z</time>
      </trkpt>
      <trkpt lat="45.87597" lon="3.90703">
        <ele>561.55</ele>
        <time>2015-05-24T09:39:22Z</time>
      </trkpt>
      <trkpt lat="45.876" lon="3.90674">
        <ele>558.66</ele>
        <time>2015-05-24T09:39:39Z</time>
      </trkpt>
      <trkpt lat="45.87605" lon="3.90639">
        <ele>558.18</ele>
        <time>2015-05-24T09:39:59Z</time>
      </trkpt>
      <trkpt lat="45.87615" lon="3.906">
        <ele>558.18</ele>
        <time>2015-05-24T09:40:18Z</time>
      </trkpt>
      <trkpt lat="45.87626" lon="3.90573">
        <ele>557.7</ele>
        <time>2015-05-24T09:40:35Z</time>
      </trkpt>
      <trkpt lat="45.87631" lon="3.90531">
        <ele>557.22</ele>
        <time>2015-05-24T09:40:56Z</time>
      </trkpt>
      <trkpt lat="45.87637" lon="3.90496">
        <ele>557.7</ele>
        <time>2015-05-24T09:41:15Z</time>
      </trkpt>
      <trkpt lat="45.87644" lon="3.90464">
        <ele>556.26</ele>
        <time>2015-05-24T09:41:33Z</time>
      </trkpt>
      <trkpt lat="45.87653" lon="3.90434">
        <ele>555.3</ele>
        <time>2015-05-24T09:41:51Z</time>
      </trkpt>
      <trkpt lat="45.87664" lon="3.90403">
        <ele>554.34</ele>
        <time>2015-05-24T09:42:09Z</time>
      </trkpt>
      <trkpt lat="45.87665" lon="3.90402">
        <ele>554.34</ele>
        <time>2015-05-24T09:42:10Z</time>
      </trkpt>
      <trkpt lat="45.87675" lon="3.90379">
        <ele>555.3</ele>
        <time>2015-05-24T09:42:24Z</time>
      </trkpt>
      <trkpt lat="45.87696" lon="3.90347">
        <ele>553.38</ele>
        <time>2015-05-24T09:42:46Z</time>
      </trkpt>
      <trkpt lat="45.87711" lon="3.9032">
        <ele>551.45</ele>
        <time>2015-05-24T09:43:06Z</time>
      </trkpt>
      <trkpt lat="45.87726" lon="3.90294">
        <ele>550.97</ele>
        <time>2015-05-24T09:43:23Z</time>
      </trkpt>
      <trkpt lat="45.87737" lon="3.90271">
        <ele>551.93</ele>
        <time>2015-05-24T09:43:40Z</time>
      </trkpt>
      <trkpt lat="45.87744" lon="3.90251">
        <ele>551.93</ele>
        <time>2015-05-24T09:43:57Z</time>
      </trkpt>
      <trkpt lat="45.87751" lon="3.90228">
        <ele>553.38</ele>
        <time>2015-05-24T09:44:16Z</time>
      </trkpt>
      <trkpt lat="45.8777" lon="3.90186">
        <ele>556.26</ele>
        <time>2015-05-24T09:44:33Z</time>
      </trkpt>
      <trkpt lat="45.87789" lon="3.90158">
        <ele>552.41</ele>
        <time>2015-05-24T09:44:52Z</time>
      </trkpt>
      <trkpt lat="45.87801" lon="3.90134">
        <ele>551.93</ele>
        <time>2015-05-24T09:45:10Z</time>
      </trkpt>
      <trkpt lat="45.87814" lon="3.90111">
        <ele>553.86</ele>
        <time>2015-05-24T09:45:28Z</time>
      </trkpt>
      <trkpt lat="45.87823" lon="3.90085">
        <ele>557.22</ele>
        <time>2015-05-24T09:45:47Z</time>
      </trkpt>
      <trkpt lat="45.87831" lon="3.90048">
        <ele>563.95</ele>
        <time>2015-05-24T09:46:08Z</time>
      </trkpt>
      <trkpt lat="45.87836" lon="3.90015">
        <ele>565.87</ele>
        <time>2015-05-24T09:46:26Z</time>
      </trkpt>
      <trkpt lat="45.87846" lon="3.89976">
        <ele>566.35</ele>
        <time>2015-05-24T09:46:44Z</time>
      </trkpt>
      <trkpt lat="45.87852" lon="3.89947">
        <ele>562.99</ele>
        <time>2015-05-24T09:47:03Z</time>
      </trkpt>
      <trkpt lat="45.87861" lon="3.89921">
        <ele>560.11</ele>
        <time>2015-05-24T09:47:23Z</time>
      </trkpt>
      <trkpt lat="45.87875" lon="3.89892">
        <ele>558.18</ele>
        <time>2015-05-24T09:47:40Z</time>
      </trkpt>
      <trkpt lat="45.87889" lon="3.89862">
        <ele>556.26</ele>
        <time>2015-05-24T09:47:55Z</time>
      </trkpt>
      <trkpt lat="45.87901" lon="3.89831">
        <ele>555.78</ele>
        <time>2015-05-24T09:48:13Z</time>
      </trkpt>
      <trkpt lat="45.87912" lon="3.89803">
        <ele>560.59</ele>
        <time>2015-05-24T09:48:29Z</time>
      </trkpt>
      <trkpt lat="45.87914" lon="3.89799">
        <ele>561.07</ele>
        <time>2015-05-24T09:48:31Z</time>
      </trkpt>
      <trkpt lat="45.87929" lon="3.89777">
        <ele>562.03</ele>
        <time>2015-05-24T09:48:49Z</time>
      </trkpt>
      <trkpt lat="45.87944" lon="3.89754">
        <ele>561.55</ele>
        <time>2015-05-24T09:49:07Z</time>
      </trkpt>
      <trkpt lat="45.87963" lon="3.89737">
        <ele>561.55</ele>
        <time>2015-05-24T09:49:26Z</time>
      </trkpt>
      <trkpt lat="45.87982" lon="3.89725">
        <ele>562.99</ele>
        <time>2015-05-24T09:49:36Z</time>
      </trkpt>
      <trkpt lat="45.88009" lon="3.8971">
        <ele>563.47</ele>
        <time>2015-05-24T09:49:54Z</time>
      </trkpt>
      <trkpt lat="45.8803" lon="3.89694">
        <ele>564.91</ele>
        <time>2015-05-24T09:50:13Z</time>
      </trkpt>
      <trkpt lat="45.88047" lon="3.89675">
        <ele>565.39</ele>
        <time>2015-05-24T09:50:33Z</time>
      </trkpt>
      <trkpt lat="45.88062" lon="3.89656">
        <ele>568.28</ele>
        <time>2015-05-24T09:50:52Z</time>
      </trkpt>
      <trkpt lat="45.8808" lon="3.8963">
        <ele>572.12</ele>
        <time>2015-05-24T09:51:10Z</time>
      </trkpt>
      <trkpt lat="45.8809" lon="3.89616">
        <ele>575.97</ele>
        <time>2015-05-24T09:51:28Z</time>
      </trkpt>
      <trkpt lat="45.88108" lon="3.89604">
        <ele>574.53</ele>
        <time>2015-05-24T09:51:54Z</time>
      </trkpt>
      <trkpt lat="45.88128" lon="3.896">
        <ele>573.08</ele>
        <time>2015-05-24T09:52:10Z</time>
      </trkpt>
      <trkpt lat="45.88152" lon="3.89604">
        <ele>574.04</ele>
        <time>2015-05-24T09:52:32Z</time>
      </trkpt>
      <trkpt lat="45.88166" lon="3.89599">
        <ele>575.49</ele>
        <time>2015-05-24T09:52:44Z</time>
      </trkpt>
      <trkpt lat="45.88193" lon="3.89582">
        <ele>572.6</ele>
        <time>2015-05-24T09:53:03Z</time>
      </trkpt>
      <trkpt lat="45.88215" lon="3.89569">
        <ele>569.72</ele>
        <time>2015-05-24T09:53:21Z</time>
      </trkpt>
      <trkpt lat="45.88237" lon="3.89539">
        <ele>564.43</ele>
        <time>2015-05-24T09:53:41Z</time>
      </trkpt>
      <trkpt lat="45.88251" lon="3.89507">
        <ele>561.07</ele>
        <time>2015-05-24T09:54:00Z</time>
      </trkpt>
      <trkpt lat="45.88277" lon="3.89471">
        <ele>554.82</ele>
        <time>2015-05-24T09:54:23Z</time>
      </trkpt>
      <trkpt lat="45.8829" lon="3.89451">
        <ele>554.82</ele>
        <time>2015-05-24T09:54:34Z</time>
      </trkpt>
      <trkpt lat="45.88291" lon="3.8945">
        <ele>554.82</ele>
        <time>2015-05-24T09:54:35Z</time>
      </trkpt>
      <trkpt lat="45.88316" lon="3.89447">
        <ele>557.22</ele>
        <time>2015-05-24T09:54:52Z</time>
      </trkpt>
      <trkpt lat="45.8834" lon="3.8945">
        <ele>561.55</ele>
        <time>2015-05-24T09:55:11Z</time>
      </trkpt>
      <trkpt lat="45.88361" lon="3.89452">
        <ele>569.24</ele>
        <time>2015-05-24T09:55:28Z</time>
      </trkpt>
      <trkpt lat="45.88377" lon="3.8946">
        <ele>571.16</ele>
        <time>2015-05-24T09:55:39Z</time>
      </trkpt>
      <trkpt lat="45.8839" lon="3.8947">
        <ele>575.49</ele>
        <time>2015-05-24T09:55:50Z</time>
      </trkpt>
      <trkpt lat="45.88416" lon="3.89487">
        <ele>578.37</ele>
        <time>2015-05-24T09:56:09Z</time>
      </trkpt>
      <trkpt lat="45.88452" lon="3.89499">
        <ele>576.93</ele>
        <time>2015-05-24T09:56:28Z</time>
      </trkpt>
      <trkpt lat="45.88479" lon="3.89497">
        <ele>576.45</ele>
        <time>2015-05-24T09:56:47Z</time>
      </trkpt>
      <trkpt lat="45.88503" lon="3.89503">
        <ele>576.45</ele>
        <time>2015-05-24T09:57:03Z</time>
      </trkpt>
      <trkpt lat="45.88534" lon="3.89508">
        <ele>576.45</ele>
        <time>2015-05-24T09:57:25Z</time>
      </trkpt>
      <trkpt lat="45.88538" lon="3.89515">
        <ele>575.49</ele>
        <time>2015-05-24T09:57:42Z</time>
      </trkpt>
      <trkpt lat="45.88541" lon="3.89517">
        <ele>574.53</ele>
        <time>2015-05-24T09:57:54Z</time>
      </trkpt>
      <trkpt lat="45.88542" lon="3.89518">
        <ele>573.56</ele>
        <time>2015-05-24T09:58:13Z</time>
      </trkpt>
      <trkpt lat="45.88547" lon="3.89517">
        <ele>573.56</ele>
        <time>2015-05-24T09:58:32Z</time>
      </trkpt>
      <trkpt lat="45.88569" lon="3.89516">
        <ele>574.04</ele>
        <time>2015-05-24T09:58:50Z</time>
      </trkpt>
      <trkpt lat="45.88588" lon="3.89509">
        <ele>571.64</ele>
        <time>2015-05-24T09:59:06Z</time>
      </trkpt>
      <trkpt lat="45.88603" lon="3.89494">
        <ele>571.16</ele>
        <time>2015-05-24T09:59:20Z</time>
      </trkpt>
      <trkpt lat="45.88623" lon="3.89477">
        <ele>571.16</ele>
        <time>2015-05-24T09:59:37Z</time>
      </trkpt>
      <trkpt lat="45.88628" lon="3.89458">
        <ele>568.76</ele>
        <time>2015-05-24T09:59:50Z</time>
      </trkpt>
      <trkpt lat="45.88633" lon="3.89438">
        <ele>567.8</ele>
        <time>2015-05-24T10:00:02Z</time>
      </trkpt>
      <trkpt lat="45.88638" lon="3.89414">
        <ele>572.6</ele>
        <time>2015-05-24T10:00:18Z</time>
      </trkpt>
      <trkpt lat="45.88644" lon="3.89383">
        <ele>575.97</ele>
        <time>2015-05-24T10:00:33Z</time>
      </trkpt>
      <trkpt lat="45.88647" lon="3.89348">
        <ele>575.97</ele>
        <time>2015-05-24T10:00:51Z</time>
      </trkpt>
      <trkpt lat="45.88647" lon="3.8933">
        <ele>575.49</ele>
        <time>2015-05-24T10:01:04Z</time>
      </trkpt>
      <trkpt lat="45.88642" lon="3.89313">
        <ele>575.97</ele>
        <time>2015-05-24T10:01:18Z</time>
      </trkpt>
      <trkpt lat="45.88633" lon="3.89301">
        <ele>575.01</ele>
        <time>2015-05-24T10:01:31Z</time>
      </trkpt>
      <trkpt lat="45.8863" lon="3.89303">
        <ele>576.45</ele>
        <time>2015-05-24T10:01:44Z</time>
      </trkpt>
      <trkpt lat="45.88629" lon="3.89303">
        <ele>581.73</ele>
        <time>2015-05-24T10:02:08Z</time>
      </trkpt>
      <trkpt lat="45.88629" lon="3.89305">
        <ele>585.1</ele>
        <time>2015-05-24T10:02:35Z</time>
      </trkpt>
      <trkpt lat="45.88629" lon="3.89305">
        <ele>584.62</ele>
        <time>2015-05-24T10:02:47Z</time>
      </trkpt>
      <trkpt lat="45.88622" lon="3.89286">
        <ele>587.02</ele>
        <time>2015-05-24T10:03:00Z</time>
      </trkpt>
      <trkpt lat="45.88612" lon="3.89263">
        <ele>587.02</ele>
        <time>2015-05-24T10:03:14Z</time>
      </trkpt>
      <trkpt lat="45.88599" lon="3.89243">
        <ele>586.54</ele>
        <time>2015-05-24T10:03:28Z</time>
      </trkpt>
      <trkpt lat="45.88593" lon="3.89231">
        <ele>587.02</ele>
        <time>2015-05-24T10:03:40Z</time>
      </trkpt>
      <trkpt lat="45.88584" lon="3.89209">
        <ele>587.98</ele>
        <time>2015-05-24T10:03:54Z</time>
      </trkpt>
      <trkpt lat="45.8858" lon="3.89202">
        <ele>587.5</ele>
        <time>2015-05-24T10:04:08Z</time>
      </trkpt>
      <trkpt lat="45.88579" lon="3.89197">
        <ele>585.58</ele>
        <time>2015-05-24T10:04:36Z</time>
      </trkpt>
      <trkpt lat="45.88574" lon="3.89181">
        <ele>586.54</ele>
        <time>2015-05-24T10:04:51Z</time>
      </trkpt>
      <trkpt lat="45.88571" lon="3.89164">
        <ele>585.58</ele>
        <time>2015-05-24T10:05:05Z</time>
      </trkpt>
      <trkpt lat="45.88571" lon="3.89144">
        <ele>586.06</ele>
        <time>2015-05-24T10:05:16Z</time>
      </trkpt>
      <trkpt lat="45.88572" lon="3.89143">
        <ele>586.06</ele>
        <time>2015-05-24T10:05:17Z</time>
      </trkpt>
      <trkpt lat="45.88573" lon="3.89142">
        <ele>586.54</ele>
        <time>2015-05-24T10:05:18Z</time>
      </trkpt>
      <trkpt lat="45.88574" lon="3.89141">
        <ele>586.54</ele>
        <time>2015-05-24T10:05:19Z</time>
      </trkpt>
      <trkpt lat="45.88575" lon="3.8914">
        <ele>586.54</ele>
        <time>2015-05-24T10:05:20Z</time>
      </trkpt>
      <trkpt lat="45.88577" lon="3.8914">
        <ele>586.54</ele>
        <time>2015-05-24T10:05:21Z</time>
      </trkpt>
      <trkpt lat="45.88578" lon="3.8914">
        <ele>586.54</ele>
        <time>2015-05-24T10:05:22Z</time>
      </trkpt>
      <trkpt lat="45.88579" lon="3.89141">
        <ele>587.02</ele>
        <time>2015-05-24T10:05:23Z</time>
      </trkpt>
      <trkpt lat="45.8858" lon="3.89142">
        <ele>587.02</ele>
        <time>2015-05-24T10:05:24Z</time>
      </trkpt>
      <trkpt lat="45.88581" lon="3.89143">
        <ele>587.02</ele>
        <time>2015-05-24T10:05:25Z</time>
      </trkpt>
      <trkpt lat="45.88585" lon="3.89147">
        <ele>587.02</ele>
        <time>2015-05-24T10:05:30Z</time>
      </trkpt>
      <trkpt lat="45.88587" lon="3.89148">
        <ele>587.02</ele>
        <time>2015-05-24T10:05:31Z</time>
      </trkpt>
      <trkpt lat="45.88588" lon="3.89149">
        <ele>587.5</ele>
        <time>2015-05-24T10:05:32Z</time>
      </trkpt>
      <trkpt lat="45.88589" lon="3.8915">
        <ele>587.5</ele>
        <time>2015-05-24T10:05:33Z</time>
      </trkpt>
      <trkpt lat="45.8859" lon="3.8915">
        <ele>587.5</ele>
        <time>2015-05-24T10:05:34Z</time>
      </trkpt>
      <trkpt lat="45.88591" lon="3.89151">
        <ele>587.98</ele>
        <time>2015-05-24T10:05:35Z</time>
      </trkpt>
      <trkpt lat="45.88592" lon="3.89153">
        <ele>587.98</ele>
        <time>2015-05-24T10:05:36Z</time>
      </trkpt>
      <trkpt lat="45.88607" lon="3.89166">
        <ele>590.39</ele>
        <time>2015-05-24T10:05:51Z</time>
      </trkpt>
      <trkpt lat="45.88626" lon="3.89172">
        <ele>592.79</ele>
        <time>2015-05-24T10:06:07Z</time>
      </trkpt>
      <trkpt lat="45.88647" lon="3.8917">
        <ele>595.19</ele>
        <time>2015-05-24T10:06:25Z</time>
      </trkpt>
      <trkpt lat="45.88666" lon="3.89169">
        <ele>598.56</ele>
        <time>2015-05-24T10:06:42Z</time>
      </trkpt>
      <trkpt lat="45.88667" lon="3.89172">
        <ele>599.04</ele>
        <time>2015-05-24T10:06:45Z</time>
      </trkpt>
      <trkpt lat="45.88667" lon="3.89182">
        <ele>598.56</ele>
        <time>2015-05-24T10:06:58Z</time>
      </trkpt>
      <trkpt lat="45.88669" lon="3.892">
        <ele>597.6</ele>
        <time>2015-05-24T10:07:11Z</time>
      </trkpt>
      <trkpt lat="45.88672" lon="3.89217">
        <ele>597.12</ele>
        <time>2015-05-24T10:07:25Z</time>
      </trkpt>
      <trkpt lat="45.88675" lon="3.89227">
        <ele>595.67</ele>
        <time>2015-05-24T10:07:43Z</time>
      </trkpt>
      <trkpt lat="45.88681" lon="3.89244">
        <ele>594.23</ele>
        <time>2015-05-24T10:07:57Z</time>
      </trkpt>
      <trkpt lat="45.8869" lon="3.89255">
        <ele>589.91</ele>
        <time>2015-05-24T10:08:12Z</time>
      </trkpt>
      <trkpt lat="45.88693" lon="3.89259">
        <ele>584.62</ele>
        <time>2015-05-24T10:08:23Z</time>
      </trkpt>
      <trkpt lat="45.88696" lon="3.89264">
        <ele>577.89</ele>
        <time>2015-05-24T10:08:36Z</time>
      </trkpt>
      <trkpt lat="45.88704" lon="3.89275">
        <ele>575.01</ele>
        <time>2015-05-24T10:08:47Z</time>
      </trkpt>
      <trkpt lat="45.88716" lon="3.89288">
        <ele>573.56</ele>
        <time>2015-05-24T10:08:59Z</time>
      </trkpt>
      <trkpt lat="45.88726" lon="3.89305">
        <ele>572.6</ele>
        <time>2015-05-24T10:09:11Z</time>
      </trkpt>
      <trkpt lat="45.88737" lon="3.89321">
        <ele>570.2</ele>
        <time>2015-05-24T10:09:24Z</time>
      </trkpt>
      <trkpt lat="45.88746" lon="3.89336">
        <ele>565.87</ele>
        <time>2015-05-24T10:09:37Z</time>
      </trkpt>
      <trkpt lat="45.88752" lon="3.89346">
        <ele>561.07</ele>
        <time>2015-05-24T10:09:48Z</time>
      </trkpt>
      <trkpt lat="45.88763" lon="3.89361">
        <ele>560.59</ele>
        <time>2015-05-24T10:10:00Z</time>
      </trkpt>
      <trkpt lat="45.88781" lon="3.8938">
        <ele>560.11</ele>
        <time>2015-05-24T10:10:13Z</time>
      </trkpt>
      <trkpt lat="45.88798" lon="3.89397">
        <ele>561.07</ele>
        <time>2015-05-24T10:10:28Z</time>
      </trkpt>
      <trkpt lat="45.88809" lon="3.89409">
        <ele>558.66</ele>
        <time>2015-05-24T10:10:40Z</time>
      </trkpt>
      <trkpt lat="45.88816" lon="3.89419">
        <ele>553.86</ele>
        <time>2015-05-24T10:10:54Z</time>
      </trkpt>
      <trkpt lat="45.88821" lon="3.89431">
        <ele>550.49</ele>
        <time>2015-05-24T10:11:05Z</time>
      </trkpt>
      <trkpt lat="45.88831" lon="3.8945">
        <ele>547.61</ele>
        <time>2015-05-24T10:11:19Z</time>
      </trkpt>
      <trkpt lat="45.88846" lon="3.8947">
        <ele>547.61</ele>
        <time>2015-05-24T10:11:31Z</time>
      </trkpt>
      <trkpt lat="45.88854" lon="3.89482">
        <ele>547.13</ele>
        <time>2015-05-24T10:11:40Z</time>
      </trkpt>
      <trkpt lat="45.8887" lon="3.89503">
        <ele>545.69</ele>
        <time>2015-05-24T10:11:54Z</time>
      </trkpt>
      <trkpt lat="45.8888" lon="3.8951">
        <ele>550.01</ele>
        <time>2015-05-24T10:11:59Z</time>
      </trkpt>
      <trkpt lat="45.88916" lon="3.89517">
        <ele>556.74</ele>
        <time>2015-05-24T10:12:16Z</time>
      </trkpt>
      <trkpt lat="45.88926" lon="3.89518">
        <ele>557.7</ele>
        <time>2015-05-24T10:12:23Z</time>
      </trkpt>
      <trkpt lat="45.88927" lon="3.89518">
        <ele>558.18</ele>
        <time>2015-05-24T10:12:24Z</time>
      </trkpt>
      <trkpt lat="45.88928" lon="3.89518">
        <ele>558.18</ele>
        <time>2015-05-24T10:12:25Z</time>
      </trkpt>
      <trkpt lat="45.88945" lon="3.89521">
        <ele>560.59</ele>
        <time>2015-05-24T10:12:40Z</time>
      </trkpt>
      <trkpt lat="45.88961" lon="3.89524">
        <ele>562.03</ele>
        <time>2015-05-24T10:12:53Z</time>
      </trkpt>
      <trkpt lat="45.88962" lon="3.89525">
        <ele>562.03</ele>
        <time>2015-05-24T10:12:54Z</time>
      </trkpt>
      <trkpt lat="45.88974" lon="3.89536">
        <ele>564.43</ele>
        <time>2015-05-24T10:13:09Z</time>
      </trkpt>
      <trkpt lat="45.88968" lon="3.89534">
        <ele>564.43</ele>
        <time>2015-05-24T10:13:19Z</time>
      </trkpt>
      <trkpt lat="45.88967" lon="3.89526">
        <ele>568.28</ele>
        <time>2015-05-24T10:13:27Z</time>
      </trkpt>
      <trkpt lat="45.88968" lon="3.89524">
        <ele>568.28</ele>
        <time>2015-05-24T10:13:28Z</time>
      </trkpt>
      <trkpt lat="45.8897" lon="3.89523">
        <ele>567.8</ele>
        <time>2015-05-24T10:13:29Z</time>
      </trkpt>
      <trkpt lat="45.88972" lon="3.89521">
        <ele>567.32</ele>
        <time>2015-05-24T10:13:30Z</time>
      </trkpt>
      <trkpt lat="45.88973" lon="3.89521">
        <ele>566.83</ele>
        <time>2015-05-24T10:13:31Z</time>
      </trkpt>
      <trkpt lat="45.88975" lon="3.8952">
        <ele>567.32</ele>
        <time>2015-05-24T10:13:32Z</time>
      </trkpt>
      <trkpt lat="45.88999" lon="3.89507">
        <ele>567.8</ele>
        <time>2015-05-24T10:13:51Z</time>
      </trkpt>
      <trkpt lat="45.89" lon="3.89506">
        <ele>567.8</ele>
        <time>2015-05-24T10:13:52Z</time>
      </trkpt>
      <trkpt lat="45.89001" lon="3.89505">
        <ele>567.8</ele>
        <time>2015-05-24T10:13:53Z</time>
      </trkpt>
      <trkpt lat="45.89003" lon="3.89504">
        <ele>567.8</ele>
        <time>2015-05-24T10:13:54Z</time>
      </trkpt>
      <trkpt lat="45.89028" lon="3.89485">
        <ele>570.68</ele>
        <time>2015-05-24T10:14:15Z</time>
      </trkpt>
      <trkpt lat="45.89053" lon="3.89473">
        <ele>574.53</ele>
        <time>2015-05-24T10:14:35Z</time>
      </trkpt>
      <trkpt lat="45.89053" lon="3.89476">
        <ele>574.04</ele>
        <time>2015-05-24T10:14:47Z</time>
      </trkpt>
      <trkpt lat="45.89052" lon="3.89476">
        <ele>574.04</ele>
        <time>2015-05-24T10:14:48Z</time>
      </trkpt>
      <trkpt lat="45.8905" lon="3.89475">
        <ele>573.56</ele>
        <time>2015-05-24T10:14:50Z</time>
      </trkpt>
      <trkpt lat="45.89049" lon="3.89474">
        <ele>573.08</ele>
        <time>2015-05-24T10:14:51Z</time>
      </trkpt>
      <trkpt lat="45.89049" lon="3.89473">
        <ele>573.08</ele>
        <time>2015-05-24T10:14:52Z</time>
      </trkpt>
      <trkpt lat="45.89049" lon="3.89471">
        <ele>573.08</ele>
        <time>2015-05-24T10:14:53Z</time>
      </trkpt>
      <trkpt lat="45.8905" lon="3.89469">
        <ele>573.08</ele>
        <time>2015-05-24T10:14:54Z</time>
      </trkpt>
      <trkpt lat="45.89051" lon="3.89468">
        <ele>573.08</ele>
        <time>2015-05-24T10:14:55Z</time>
      </trkpt>
      <trkpt lat="45.89053" lon="3.89467">
        <ele>574.04</ele>
        <time>2015-05-24T10:14:56Z</time>
      </trkpt>
      <trkpt lat="45.89054" lon="3.89467">
        <ele>574.53</ele>
        <time>2015-05-24T10:14:57Z</time>
      </trkpt>
      <trkpt lat="45.89055" lon="3.89466">
        <ele>575.01</ele>
        <time>2015-05-24T10:14:58Z</time>
      </trkpt>
      <trkpt lat="45.89057" lon="3.89465">
        <ele>575.97</ele>
        <time>2015-05-24T10:14:59Z</time>
      </trkpt>
      <trkpt lat="45.89076" lon="3.89456">
        <ele>576.93</ele>
        <time>2015-05-24T10:15:16Z</time>
      </trkpt>
      <trkpt lat="45.89099" lon="3.89451">
        <ele>577.41</ele>
        <time>2015-05-24T10:15:29Z</time>
      </trkpt>
      <trkpt lat="45.89115" lon="3.89444">
        <ele>579.81</ele>
        <time>2015-05-24T10:15:43Z</time>
      </trkpt>
      <trkpt lat="45.89135" lon="3.8944">
        <ele>583.66</ele>
        <time>2015-05-24T10:15:59Z</time>
      </trkpt>
      <trkpt lat="45.89154" lon="3.89436">
        <ele>587.02</ele>
        <time>2015-05-24T10:16:15Z</time>
      </trkpt>
      <trkpt lat="45.89155" lon="3.89436">
        <ele>587.02</ele>
        <time>2015-05-24T10:16:16Z</time>
      </trkpt>
      <trkpt lat="45.89156" lon="3.89435">
        <ele>587.5</ele>
        <time>2015-05-24T10:16:17Z</time>
      </trkpt>
      <trkpt lat="45.89158" lon="3.89435">
        <ele>587.5</ele>
        <time>2015-05-24T10:16:18Z</time>
      </trkpt>
      <trkpt lat="45.89175" lon="3.89433">
        <ele>590.87</ele>
        <time>2015-05-24T10:16:32Z</time>
      </trkpt>
      <trkpt lat="45.8919" lon="3.89429">
        <ele>593.75</ele>
        <time>2015-05-24T10:16:48Z</time>
      </trkpt>
      <trkpt lat="45.89193" lon="3.8943">
        <ele>589.91</ele>
        <time>2015-05-24T10:17:14Z</time>
      </trkpt>
      <trkpt lat="45.89229" lon="3.89415">
        <ele>596.15</ele>
        <time>2015-05-24T10:17:22Z</time>
      </trkpt>
      <trkpt lat="45.89263" lon="3.89393">
        <ele>605.77</ele>
        <time>2015-05-24T10:17:32Z</time>
      </trkpt>
      <trkpt lat="45.89282" lon="3.89379">
        <ele>610.09</ele>
        <time>2015-05-24T10:17:43Z</time>
      </trkpt>
      <trkpt lat="45.89284" lon="3.89376">
        <ele>610.57</ele>
        <time>2015-05-24T10:17:46Z</time>
      </trkpt>
      <trkpt lat="45.89286" lon="3.89374">
        <ele>611.06</ele>
        <time>2015-05-24T10:17:48Z</time>
      </trkpt>
      <trkpt lat="45.89287" lon="3.89372">
        <ele>611.54</ele>
        <time>2015-05-24T10:17:49Z</time>
      </trkpt>
      <trkpt lat="45.89288" lon="3.89371">
        <ele>612.02</ele>
        <time>2015-05-24T10:17:50Z</time>
      </trkpt>
      <trkpt lat="45.89289" lon="3.8937">
        <ele>612.5</ele>
        <time>2015-05-24T10:17:51Z</time>
      </trkpt>
      <trkpt lat="45.8931" lon="3.89355">
        <ele>614.9</ele>
        <time>2015-05-24T10:18:11Z</time>
      </trkpt>
      <trkpt lat="45.89329" lon="3.89332">
        <ele>617.3</ele>
        <time>2015-05-24T10:18:30Z</time>
      </trkpt>
      <trkpt lat="45.89346" lon="3.89318">
        <ele>617.78</ele>
        <time>2015-05-24T10:18:47Z</time>
      </trkpt>
      <trkpt lat="45.89365" lon="3.89301">
        <ele>620.19</ele>
        <time>2015-05-24T10:19:05Z</time>
      </trkpt>
      <trkpt lat="45.8938" lon="3.89287">
        <ele>622.59</ele>
        <time>2015-05-24T10:19:21Z</time>
      </trkpt>
      <trkpt lat="45.89392" lon="3.89277">
        <ele>624.51</ele>
        <time>2015-05-24T10:19:32Z</time>
      </trkpt>
      <trkpt lat="45.89394" lon="3.89276">
        <ele>624.51</ele>
        <time>2015-05-24T10:19:34Z</time>
      </trkpt>
      <trkpt lat="45.8941" lon="3.89266">
        <ele>627.88</ele>
        <time>2015-05-24T10:19:50Z</time>
      </trkpt>
      <trkpt lat="45.8942" lon="3.89257">
        <ele>630.28</ele>
        <time>2015-05-24T10:20:01Z</time>
      </trkpt>
      <trkpt lat="45.89437" lon="3.89241">
        <ele>635.09</ele>
        <time>2015-05-24T10:20:20Z</time>
      </trkpt>
      <trkpt lat="45.89458" lon="3.89227">
        <ele>638.45</ele>
        <time>2015-05-24T10:20:39Z</time>
      </trkpt>
      <trkpt lat="45.89477" lon="3.89213">
        <ele>642.3</ele>
        <time>2015-05-24T10:20:58Z</time>
      </trkpt>
      <trkpt lat="45.89493" lon="3.89202">
        <ele>644.7</ele>
        <time>2015-05-24T10:21:13Z</time>
      </trkpt>
      <trkpt lat="45.89509" lon="3.89179">
        <ele>647.1</ele>
        <time>2015-05-24T10:21:32Z</time>
      </trkpt>
      <trkpt lat="45.89514" lon="3.89174">
        <ele>648.07</ele>
        <time>2015-05-24T10:21:37Z</time>
      </trkpt>
      <trkpt lat="45.89515" lon="3.89173">
        <ele>648.07</ele>
        <time>2015-05-24T10:21:38Z</time>
      </trkpt>
      <trkpt lat="45.89531" lon="3.89159">
        <ele>648.55</ele>
        <time>2015-05-24T10:21:52Z</time>
      </trkpt>
      <trkpt lat="45.89546" lon="3.89142">
        <ele>648.55</ele>
        <time>2015-05-24T10:22:07Z</time>
      </trkpt>
      <trkpt lat="45.8956" lon="3.89126">
        <ele>649.99</ele>
        <time>2015-05-24T10:22:21Z</time>
      </trkpt>
      <trkpt lat="45.89579" lon="3.8911">
        <ele>652.39</ele>
        <time>2015-05-24T10:22:38Z</time>
      </trkpt>
      <trkpt lat="45.89597" lon="3.89093">
        <ele>652.39</ele>
        <time>2015-05-24T10:22:55Z</time>
      </trkpt>
      <trkpt lat="45.89617" lon="3.89075">
        <ele>652.87</ele>
        <time>2015-05-24T10:23:13Z</time>
      </trkpt>
      <trkpt lat="45.89635" lon="3.89061">
        <ele>653.83</ele>
        <time>2015-05-24T10:23:30Z</time>
      </trkpt>
      <trkpt lat="45.89656" lon="3.89046">
        <ele>655.28</ele>
        <time>2015-05-24T10:23:49Z</time>
      </trkpt>
      <trkpt lat="45.89678" lon="3.89035">
        <ele>656.72</ele>
        <time>2015-05-24T10:24:06Z</time>
      </trkpt>
      <trkpt lat="45.89701" lon="3.89031">
        <ele>659.6</ele>
        <time>2015-05-24T10:24:25Z</time>
      </trkpt>
      <trkpt lat="45.89717" lon="3.89025">
        <ele>658.16</ele>
        <time>2015-05-24T10:24:38Z</time>
      </trkpt>
      <trkpt lat="45.89738" lon="3.89017">
        <ele>658.16</ele>
        <time>2015-05-24T10:24:53Z</time>
      </trkpt>
      <trkpt lat="45.89766" lon="3.89012">
        <ele>656.72</ele>
        <time>2015-05-24T10:25:07Z</time>
      </trkpt>
      <trkpt lat="45.898" lon="3.89018">
        <ele>653.83</ele>
        <time>2015-05-24T10:25:19Z</time>
      </trkpt>
      <trkpt lat="45.89833" lon="3.89037">
        <ele>655.76</ele>
        <time>2015-05-24T10:25:29Z</time>
      </trkpt>
      <trkpt lat="45.89855" lon="3.89051">
        <ele>660.08</ele>
        <time>2015-05-24T10:25:40Z</time>
      </trkpt>
      <trkpt lat="45.89871" lon="3.89056">
        <ele>663.45</ele>
        <time>2015-05-24T10:25:54Z</time>
      </trkpt>
      <trkpt lat="45.89878" lon="3.89056">
        <ele>663.93</ele>
        <time>2015-05-24T10:26:00Z</time>
      </trkpt>
      <trkpt lat="45.8988" lon="3.89053">
        <ele>664.41</ele>
        <time>2015-05-24T10:26:03Z</time>
      </trkpt>
      <trkpt lat="45.89881" lon="3.89052">
        <ele>664.41</ele>
        <time>2015-05-24T10:26:04Z</time>
      </trkpt>
      <trkpt lat="45.89881" lon="3.8905">
        <ele>664.41</ele>
        <time>2015-05-24T10:26:05Z</time>
      </trkpt>
      <trkpt lat="45.899" lon="3.89041">
        <ele>665.85</ele>
        <time>2015-05-24T10:26:21Z</time>
      </trkpt>
      <trkpt lat="45.89929" lon="3.89045">
        <ele>670.66</ele>
        <time>2015-05-24T10:26:43Z</time>
      </trkpt>
      <trkpt lat="45.8995" lon="3.89049">
        <ele>675.46</ele>
        <time>2015-05-24T10:27:01Z</time>
      </trkpt>
      <trkpt lat="45.89973" lon="3.8904">
        <ele>680.75</ele>
        <time>2015-05-24T10:27:19Z</time>
      </trkpt>
      <trkpt lat="45.89988" lon="3.89031">
        <ele>684.12</ele>
        <time>2015-05-24T10:27:35Z</time>
      </trkpt>
      <trkpt lat="45.89999" lon="3.89025">
        <ele>685.56</ele>
        <time>2015-05-24T10:27:48Z</time>
      </trkpt>
      <trkpt lat="45.90013" lon="3.89018">
        <ele>686.52</ele>
        <time>2015-05-24T10:28:02Z</time>
      </trkpt>
      <trkpt lat="45.90029" lon="3.89011">
        <ele>688.44</ele>
        <time>2015-05-24T10:28:18Z</time>
      </trkpt>
      <trkpt lat="45.90044" lon="3.89001">
        <ele>690.36</ele>
        <time>2015-05-24T10:28:33Z</time>
      </trkpt>
      <trkpt lat="45.90061" lon="3.88993">
        <ele>693.73</ele>
        <time>2015-05-24T10:28:48Z</time>
      </trkpt>
      <trkpt lat="45.9008" lon="3.88982">
        <ele>693.73</ele>
        <time>2015-05-24T10:29:03Z</time>
      </trkpt>
      <trkpt lat="45.90096" lon="3.88967">
        <ele>694.21</ele>
        <time>2015-05-24T10:29:18Z</time>
      </trkpt>
      <trkpt lat="45.90097" lon="3.88965">
        <ele>694.21</ele>
        <time>2015-05-24T10:29:19Z</time>
      </trkpt>
      <trkpt lat="45.90116" lon="3.88951">
        <ele>695.17</ele>
        <time>2015-05-24T10:29:35Z</time>
      </trkpt>
      <trkpt lat="45.90134" lon="3.88939">
        <ele>693.25</ele>
        <time>2015-05-24T10:29:50Z</time>
      </trkpt>
      <trkpt lat="45.90156" lon="3.88936">
        <ele>692.29</ele>
        <time>2015-05-24T10:30:07Z</time>
      </trkpt>
      <trkpt lat="45.90175" lon="3.88938">
        <ele>691.81</ele>
        <time>2015-05-24T10:30:23Z</time>
      </trkpt>
      <trkpt lat="45.90192" lon="3.88949">
        <ele>692.77</ele>
        <time>2015-05-24T10:30:38Z</time>
      </trkpt>
      <trkpt lat="45.90208" lon="3.88958">
        <ele>690.36</ele>
        <time>2015-05-24T10:30:51Z</time>
      </trkpt>
      <trkpt lat="45.90209" lon="3.88958">
        <ele>690.36</ele>
        <time>2015-05-24T10:30:52Z</time>
      </trkpt>
      <trkpt lat="45.90213" lon="3.8896">
        <ele>688.92</ele>
        <time>2015-05-24T10:31:02Z</time>
      </trkpt>
      <trkpt lat="45.90214" lon="3.88963">
        <ele>688.92</ele>
        <time>2015-05-24T10:31:03Z</time>
      </trkpt>
      <trkpt lat="45.90214" lon="3.88964">
        <ele>688.92</ele>
        <time>2015-05-24T10:31:04Z</time>
      </trkpt>
      <trkpt lat="45.90232" lon="3.88981">
        <ele>688.44</ele>
        <time>2015-05-24T10:31:21Z</time>
      </trkpt>
      <trkpt lat="45.90256" lon="3.88992">
        <ele>687.96</ele>
        <time>2015-05-24T10:31:39Z</time>
      </trkpt>
      <trkpt lat="45.9028" lon="3.89002">
        <ele>687.48</ele>
        <time>2015-05-24T10:31:57Z</time>
      </trkpt>
      <trkpt lat="45.90303" lon="3.89017">
        <ele>688.44</ele>
        <time>2015-05-24T10:32:14Z</time>
      </trkpt>
      <trkpt lat="45.90322" lon="3.8903">
        <ele>691.81</ele>
        <time>2015-05-24T10:32:31Z</time>
      </trkpt>
      <trkpt lat="45.9035" lon="3.89039">
        <ele>696.13</ele>
        <time>2015-05-24T10:32:53Z</time>
      </trkpt>
      <trkpt lat="45.90357" lon="3.8904">
        <ele>697.09</ele>
        <time>2015-05-24T10:32:59Z</time>
      </trkpt>
      <trkpt lat="45.90359" lon="3.8904">
        <ele>697.09</ele>
        <time>2015-05-24T10:33:00Z</time>
      </trkpt>
      <trkpt lat="45.90379" lon="3.89044">
        <ele>698.53</ele>
        <time>2015-05-24T10:33:16Z</time>
      </trkpt>
      <trkpt lat="45.90405" lon="3.89049">
        <ele>698.53</ele>
        <time>2015-05-24T10:33:35Z</time>
      </trkpt>
      <trkpt lat="45.90428" lon="3.89053">
        <ele>697.09</ele>
        <time>2015-05-24T10:33:52Z</time>
      </trkpt>
      <trkpt lat="45.90447" lon="3.8906">
        <ele>694.21</ele>
        <time>2015-05-24T10:34:07Z</time>
      </trkpt>
      <trkpt lat="45.90469" lon="3.89076">
        <ele>694.21</ele>
        <time>2015-05-24T10:34:24Z</time>
      </trkpt>
      <trkpt lat="45.9049" lon="3.89086">
        <ele>693.73</ele>
        <time>2015-05-24T10:34:40Z</time>
      </trkpt>
      <trkpt lat="45.90516" lon="3.89091">
        <ele>694.21</ele>
        <time>2015-05-24T10:34:57Z</time>
      </trkpt>
      <trkpt lat="45.90541" lon="3.89097">
        <ele>694.69</ele>
        <time>2015-05-24T10:35:15Z</time>
      </trkpt>
      <trkpt lat="45.90556" lon="3.8911">
        <ele>697.09</ele>
        <time>2015-05-24T10:35:31Z</time>
      </trkpt>
      <trkpt lat="45.90576" lon="3.89096">
        <ele>696.61</ele>
        <time>2015-05-24T10:35:47Z</time>
      </trkpt>
      <trkpt lat="45.90596" lon="3.89084">
        <ele>697.09</ele>
        <time>2015-05-24T10:36:03Z</time>
      </trkpt>
      <trkpt lat="45.90624" lon="3.89071">
        <ele>701.42</ele>
        <time>2015-05-24T10:36:24Z</time>
      </trkpt>
      <trkpt lat="45.90642" lon="3.89076">
        <ele>702.86</ele>
        <time>2015-05-24T10:36:39Z</time>
      </trkpt>
      <trkpt lat="45.90652" lon="3.89083">
        <ele>705.26</ele>
        <time>2015-05-24T10:36:49Z</time>
      </trkpt>
      <trkpt lat="45.90653" lon="3.89083">
        <ele>705.75</ele>
        <time>2015-05-24T10:36:50Z</time>
      </trkpt>
      <trkpt lat="45.90666" lon="3.89094">
        <ele>706.71</ele>
        <time>2015-05-24T10:37:03Z</time>
      </trkpt>
      <trkpt lat="45.90682" lon="3.89106">
        <ele>704.3</ele>
        <time>2015-05-24T10:37:20Z</time>
      </trkpt>
      <trkpt lat="45.90694" lon="3.89112">
        <ele>697.09</ele>
        <time>2015-05-24T10:37:34Z</time>
      </trkpt>
      <trkpt lat="45.90707" lon="3.89122">
        <ele>697.57</ele>
        <time>2015-05-24T10:37:46Z</time>
      </trkpt>
      <trkpt lat="45.90709" lon="3.89123">
        <ele>698.05</ele>
        <time>2015-05-24T10:37:47Z</time>
      </trkpt>
      <trkpt lat="45.90719" lon="3.89132">
        <ele>696.13</ele>
        <time>2015-05-24T10:37:59Z</time>
      </trkpt>
      <trkpt lat="45.90735" lon="3.89147">
        <ele>705.75</ele>
        <time>2015-05-24T10:38:11Z</time>
      </trkpt>
      <trkpt lat="45.90746" lon="3.8916">
        <ele>706.71</ele>
        <time>2015-05-24T10:38:24Z</time>
      </trkpt>
      <trkpt lat="45.90762" lon="3.89181">
        <ele>711.03</ele>
        <time>2015-05-24T10:38:38Z</time>
      </trkpt>
      <trkpt lat="45.90783" lon="3.89196">
        <ele>717.76</ele>
        <time>2015-05-24T10:38:52Z</time>
      </trkpt>
      <trkpt lat="45.90804" lon="3.89198">
        <ele>717.28</ele>
        <time>2015-05-24T10:39:07Z</time>
      </trkpt>
      <trkpt lat="45.90826" lon="3.89193">
        <ele>716.32</ele>
        <time>2015-05-24T10:39:23Z</time>
      </trkpt>
      <trkpt lat="45.90845" lon="3.89184">
        <ele>715.36</ele>
        <time>2015-05-24T10:39:37Z</time>
      </trkpt>
      <trkpt lat="45.90863" lon="3.89175">
        <ele>714.88</ele>
        <time>2015-05-24T10:39:51Z</time>
      </trkpt>
      <trkpt lat="45.90864" lon="3.89174">
        <ele>714.88</ele>
        <time>2015-05-24T10:39:52Z</time>
      </trkpt>
      <trkpt lat="45.90881" lon="3.8917">
        <ele>714.4</ele>
        <time>2015-05-24T10:40:07Z</time>
      </trkpt>
      <trkpt lat="45.90902" lon="3.89166">
        <ele>715.84</ele>
        <time>2015-05-24T10:40:23Z</time>
      </trkpt>
      <trkpt lat="45.90904" lon="3.89165">
        <ele>714.88</ele>
        <time>2015-05-24T10:40:26Z</time>
      </trkpt>
      <trkpt lat="45.90906" lon="3.89165">
        <ele>714.88</ele>
        <time>2015-05-24T10:40:27Z</time>
      </trkpt>
      <trkpt lat="45.90907" lon="3.89165">
        <ele>714.88</ele>
        <time>2015-05-24T10:40:28Z</time>
      </trkpt>
      <trkpt lat="45.90908" lon="3.89165">
        <ele>715.36</ele>
        <time>2015-05-24T10:40:29Z</time>
      </trkpt>
      <trkpt lat="45.9091" lon="3.89165">
        <ele>715.36</ele>
        <time>2015-05-24T10:40:30Z</time>
      </trkpt>
      <trkpt lat="45.90911" lon="3.89164">
        <ele>715.36</ele>
        <time>2015-05-24T10:40:31Z</time>
      </trkpt>
      <trkpt lat="45.90912" lon="3.89164">
        <ele>715.36</ele>
        <time>2015-05-24T10:40:32Z</time>
      </trkpt>
      <trkpt lat="45.90927" lon="3.89162">
        <ele>715.36</ele>
        <time>2015-05-24T10:40:46Z</time>
      </trkpt>
      <trkpt lat="45.90931" lon="3.8916">
        <ele>715.36</ele>
        <time>2015-05-24T10:40:50Z</time>
      </trkpt>
      <trkpt lat="45.90932" lon="3.89161">
        <ele>715.84</ele>
        <time>2015-05-24T10:40:51Z</time>
      </trkpt>
      <trkpt lat="45.90953" lon="3.89154">
        <ele>720.16</ele>
        <time>2015-05-24T10:41:07Z</time>
      </trkpt>
      <trkpt lat="45.90967" lon="3.89143">
        <ele>725.45</ele>
        <time>2015-05-24T10:41:21Z</time>
      </trkpt>
      <trkpt lat="45.90982" lon="3.89135">
        <ele>733.14</ele>
        <time>2015-05-24T10:41:34Z</time>
      </trkpt>
      <trkpt lat="45.91002" lon="3.89117">
        <ele>740.35</ele>
        <time>2015-05-24T10:41:50Z</time>
      </trkpt>
      <trkpt lat="45.91018" lon="3.89099">
        <ele>740.83</ele>
        <time>2015-05-24T10:42:05Z</time>
      </trkpt>
      <trkpt lat="45.91029" lon="3.89076">
        <ele>740.35</ele>
        <time>2015-05-24T10:42:21Z</time>
      </trkpt>
      <trkpt lat="45.91039" lon="3.89048">
        <ele>739.87</ele>
        <time>2015-05-24T10:42:37Z</time>
      </trkpt>
      <trkpt lat="45.91044" lon="3.89025">
        <ele>741.31</ele>
        <time>2015-05-24T10:42:52Z</time>
      </trkpt>
      <trkpt lat="45.91044" lon="3.89021">
        <ele>741.31</ele>
        <time>2015-05-24T10:42:54Z</time>
      </trkpt>
      <trkpt lat="45.91045" lon="3.8902">
        <ele>741.31</ele>
        <time>2015-05-24T10:42:55Z</time>
      </trkpt>
      <trkpt lat="45.91045" lon="3.89018">
        <ele>741.31</ele>
        <time>2015-05-24T10:42:56Z</time>
      </trkpt>
      <trkpt lat="45.91045" lon="3.89015">
        <ele>741.31</ele>
        <time>2015-05-24T10:42:57Z</time>
      </trkpt>
      <trkpt lat="45.91046" lon="3.89013">
        <ele>741.31</ele>
        <time>2015-05-24T10:42:58Z</time>
      </trkpt>
      <trkpt lat="45.91046" lon="3.89011">
        <ele>741.31</ele>
        <time>2015-05-24T10:42:59Z</time>
      </trkpt>
      <trkpt lat="45.91046" lon="3.89009">
        <ele>740.83</ele>
        <time>2015-05-24T10:43:00Z</time>
      </trkpt>
      <trkpt lat="45.91047" lon="3.89006">
        <ele>740.83</ele>
        <time>2015-05-24T10:43:01Z</time>
      </trkpt>
      <trkpt lat="45.91047" lon="3.89004">
        <ele>740.35</ele>
        <time>2015-05-24T10:43:02Z</time>
      </trkpt>
      <trkpt lat="45.91049" lon="3.88972">
        <ele>737.95</ele>
        <time>2015-05-24T10:43:16Z</time>
      </trkpt>
      <trkpt lat="45.91048" lon="3.88935">
        <ele>739.87</ele>
        <time>2015-05-24T10:43:35Z</time>
      </trkpt>
      <trkpt lat="45.91063" lon="3.88909">
        <ele>740.83</ele>
        <time>2015-05-24T10:43:50Z</time>
      </trkpt>
      <trkpt lat="45.91091" lon="3.88899">
        <ele>739.39</ele>
        <time>2015-05-24T10:44:05Z</time>
      </trkpt>
      <trkpt lat="45.91107" lon="3.88909">
        <ele>734.1</ele>
        <time>2015-05-24T10:44:18Z</time>
      </trkpt>
      <trkpt lat="45.91128" lon="3.88927">
        <ele>730.74</ele>
        <time>2015-05-24T10:44:34Z</time>
      </trkpt>
      <trkpt lat="45.91148" lon="3.88955">
        <ele>730.26</ele>
        <time>2015-05-24T10:44:52Z</time>
      </trkpt>
      <trkpt lat="45.91178" lon="3.88966">
        <ele>730.26</ele>
        <time>2015-05-24T10:45:11Z</time>
      </trkpt>
      <trkpt lat="45.91197" lon="3.88975">
        <ele>726.41</ele>
        <time>2015-05-24T10:45:24Z</time>
      </trkpt>
      <trkpt lat="45.91215" lon="3.88999">
        <ele>725.45</ele>
        <time>2015-05-24T10:45:39Z</time>
      </trkpt>
      <trkpt lat="45.91228" lon="3.89046">
        <ele>726.89</ele>
        <time>2015-05-24T10:46:02Z</time>
      </trkpt>
      <trkpt lat="45.91242" lon="3.89069">
        <ele>728.82</ele>
        <time>2015-05-24T10:46:16Z</time>
      </trkpt>
      <trkpt lat="45.91249" lon="3.89107">
        <ele>730.26</ele>
        <time>2015-05-24T10:46:35Z</time>
      </trkpt>
      <trkpt lat="45.91257" lon="3.89147">
        <ele>733.14</ele>
        <time>2015-05-24T10:46:56Z</time>
      </trkpt>
      <trkpt lat="45.91261" lon="3.89166">
        <ele>736.51</ele>
        <time>2015-05-24T10:47:07Z</time>
      </trkpt>
      <trkpt lat="45.91263" lon="3.89184">
        <ele>741.79</ele>
        <time>2015-05-24T10:47:18Z</time>
      </trkpt>
      <trkpt lat="45.91263" lon="3.89185">
        <ele>741.79</ele>
        <time>2015-05-24T10:47:19Z</time>
      </trkpt>
      <trkpt lat="45.91264" lon="3.8919">
        <ele>742.28</ele>
        <time>2015-05-24T10:47:21Z</time>
      </trkpt>
      <trkpt lat="45.91264" lon="3.89192">
        <ele>742.76</ele>
        <time>2015-05-24T10:47:22Z</time>
      </trkpt>
      <trkpt lat="45.91264" lon="3.89194">
        <ele>742.76</ele>
        <time>2015-05-24T10:47:23Z</time>
      </trkpt>
      <trkpt lat="45.91264" lon="3.89196">
        <ele>743.24</ele>
        <time>2015-05-24T10:47:24Z</time>
      </trkpt>
      <trkpt lat="45.91264" lon="3.89199">
        <ele>743.24</ele>
        <time>2015-05-24T10:47:25Z</time>
      </trkpt>
      <trkpt lat="45.91264" lon="3.89201">
        <ele>743.24</ele>
        <time>2015-05-24T10:47:26Z</time>
      </trkpt>
      <trkpt lat="45.91267" lon="3.89225">
        <ele>742.28</ele>
        <time>2015-05-24T10:47:40Z</time>
      </trkpt>
      <trkpt lat="45.91268" lon="3.89234">
        <ele>744.2</ele>
        <time>2015-05-24T10:47:56Z</time>
      </trkpt>
      <trkpt lat="45.91269" lon="3.89241">
        <ele>744.68</ele>
        <time>2015-05-24T10:48:04Z</time>
      </trkpt>
      <trkpt lat="45.9127" lon="3.89243">
        <ele>744.68</ele>
        <time>2015-05-24T10:48:05Z</time>
      </trkpt>
      <trkpt lat="45.9127" lon="3.89246">
        <ele>744.2</ele>
        <time>2015-05-24T10:48:06Z</time>
      </trkpt>
      <trkpt lat="45.9127" lon="3.89251">
        <ele>744.2</ele>
        <time>2015-05-24T10:48:07Z</time>
      </trkpt>
      <trkpt lat="45.91271" lon="3.89257">
        <ele>744.2</ele>
        <time>2015-05-24T10:48:08Z</time>
      </trkpt>
      <trkpt lat="45.91277" lon="3.89328">
        <ele>743.72</ele>
        <time>2015-05-24T10:48:19Z</time>
      </trkpt>
      <trkpt lat="45.91277" lon="3.89336">
        <ele>743.72</ele>
        <time>2015-05-24T10:48:20Z</time>
      </trkpt>
      <trkpt lat="45.91278" lon="3.89345">
        <ele>744.2</ele>
        <time>2015-05-24T10:48:21Z</time>
      </trkpt>
      <trkpt lat="45.91284" lon="3.89401">
        <ele>739.87</ele>
        <time>2015-05-24T10:48:32Z</time>
      </trkpt>
      <trkpt lat="45.91313" lon="3.89402">
        <ele>737.47</ele>
        <time>2015-05-24T10:48:42Z</time>
      </trkpt>
      <trkpt lat="45.91378" lon="3.89385">
        <ele>739.87</ele>
        <time>2015-05-24T10:48:58Z</time>
      </trkpt>
      <trkpt lat="45.91401" lon="3.89377">
        <ele>740.83</ele>
        <time>2015-05-24T10:49:03Z</time>
      </trkpt>
      <trkpt lat="45.91405" lon="3.89377">
        <ele>740.35</ele>
        <time>2015-05-24T10:49:04Z</time>
      </trkpt>
      <trkpt lat="45.91442" lon="3.89373">
        <ele>741.79</ele>
        <time>2015-05-24T10:49:15Z</time>
      </trkpt>
      <trkpt lat="45.91477" lon="3.89368">
        <ele>744.68</ele>
        <time>2015-05-24T10:49:25Z</time>
      </trkpt>
      <trkpt lat="45.91481" lon="3.89367">
        <ele>744.68</ele>
        <time>2015-05-24T10:49:26Z</time>
      </trkpt>
      <trkpt lat="45.91486" lon="3.89366">
        <ele>744.68</ele>
        <time>2015-05-24T10:49:27Z</time>
      </trkpt>
      <trkpt lat="45.91534" lon="3.89359">
        <ele>743.72</ele>
        <time>2015-05-24T10:49:37Z</time>
      </trkpt>
      <trkpt lat="45.91538" lon="3.89359">
        <ele>743.72</ele>
        <time>2015-05-24T10:49:38Z</time>
      </trkpt>
      <trkpt lat="45.91561" lon="3.89358">
        <ele>743.72</ele>
        <time>2015-05-24T10:49:43Z</time>
      </trkpt>
      <trkpt lat="45.91565" lon="3.89358">
        <ele>744.2</ele>
        <time>2015-05-24T10:49:44Z</time>
      </trkpt>
      <trkpt lat="45.91574" lon="3.89358">
        <ele>744.2</ele>
        <time>2015-05-24T10:49:46Z</time>
      </trkpt>
      <trkpt lat="45.91579" lon="3.89359">
        <ele>744.68</ele>
        <time>2015-05-24T10:49:47Z</time>
      </trkpt>
      <trkpt lat="45.91584" lon="3.8936">
        <ele>745.16</ele>
        <time>2015-05-24T10:49:48Z</time>
      </trkpt>
      <trkpt lat="45.91626" lon="3.89368">
        <ele>749.49</ele>
        <time>2015-05-24T10:50:00Z</time>
      </trkpt>
      <trkpt lat="45.91646" lon="3.89367">
        <ele>751.89</ele>
        <time>2015-05-24T10:50:13Z</time>
      </trkpt>
      <trkpt lat="45.91648" lon="3.89367">
        <ele>751.89</ele>
        <time>2015-05-24T10:50:14Z</time>
      </trkpt>
      <trkpt lat="45.91649" lon="3.89367">
        <ele>751.89</ele>
        <time>2015-05-24T10:50:15Z</time>
      </trkpt>
      <trkpt lat="45.9167" lon="3.89365">
        <ele>749.97</ele>
        <time>2015-05-24T10:50:29Z</time>
      </trkpt>
      <trkpt lat="45.91694" lon="3.89368">
        <ele>752.85</ele>
        <time>2015-05-24T10:50:44Z</time>
      </trkpt>
      <trkpt lat="45.91708" lon="3.89369">
        <ele>752.85</ele>
        <time>2015-05-24T10:50:52Z</time>
      </trkpt>
      <trkpt lat="45.9173" lon="3.89366">
        <ele>758.14</ele>
        <time>2015-05-24T10:51:06Z</time>
      </trkpt>
      <trkpt lat="45.91759" lon="3.89362">
        <ele>756.69</ele>
        <time>2015-05-24T10:51:25Z</time>
      </trkpt>
      <trkpt lat="45.91783" lon="3.8936">
        <ele>751.41</ele>
        <time>2015-05-24T10:51:42Z</time>
      </trkpt>
      <trkpt lat="45.91805" lon="3.89353">
        <ele>746.12</ele>
        <time>2015-05-24T10:52:00Z</time>
      </trkpt>
      <trkpt lat="45.91825" lon="3.89336">
        <ele>744.2</ele>
        <time>2015-05-24T10:52:17Z</time>
      </trkpt>
      <trkpt lat="45.91842" lon="3.89311">
        <ele>741.79</ele>
        <time>2015-05-24T10:52:34Z</time>
      </trkpt>
      <trkpt lat="45.91863" lon="3.89303">
        <ele>740.35</ele>
        <time>2015-05-24T10:52:50Z</time>
      </trkpt>
      <trkpt lat="45.91885" lon="3.89304">
        <ele>739.87</ele>
        <time>2015-05-24T10:53:07Z</time>
      </trkpt>
      <trkpt lat="45.91912" lon="3.89308">
        <ele>738.91</ele>
        <time>2015-05-24T10:53:25Z</time>
      </trkpt>
      <trkpt lat="45.91933" lon="3.89324">
        <ele>739.87</ele>
        <time>2015-05-24T10:53:42Z</time>
      </trkpt>
      <trkpt lat="45.91948" lon="3.8935">
        <ele>739.39</ele>
        <time>2015-05-24T10:53:56Z</time>
      </trkpt>
      <trkpt lat="45.91962" lon="3.89377">
        <ele>740.35</ele>
        <time>2015-05-24T10:54:13Z</time>
      </trkpt>
      <trkpt lat="45.91981" lon="3.894">
        <ele>740.83</ele>
        <time>2015-05-24T10:54:30Z</time>
      </trkpt>
      <trkpt lat="45.91993" lon="3.89437">
        <ele>741.79</ele>
        <time>2015-05-24T10:54:49Z</time>
      </trkpt>
      <trkpt lat="45.92009" lon="3.89476">
        <ele>745.16</ele>
        <time>2015-05-24T10:55:05Z</time>
      </trkpt>
      <trkpt lat="45.92041" lon="3.89469">
        <ele>746.12</ele>
        <time>2015-05-24T10:55:20Z</time>
      </trkpt>
      <trkpt lat="45.92065" lon="3.8946">
        <ele>746.12</ele>
        <time>2015-05-24T10:55:38Z</time>
      </trkpt>
      <trkpt lat="45.92066" lon="3.89459">
        <ele>746.12</ele>
        <time>2015-05-24T10:55:39Z</time>
      </trkpt>
      <trkpt lat="45.92066" lon="3.89457">
        <ele>746.12</ele>
        <time>2015-05-24T10:55:40Z</time>
      </trkpt>
      <trkpt lat="45.9207" lon="3.89429">
        <ele>747.56</ele>
        <time>2015-05-24T10:55:56Z</time>
      </trkpt>
      <trkpt lat="45.92071" lon="3.89414">
        <ele>748.52</ele>
        <time>2015-05-24T10:56:12Z</time>
      </trkpt>
      <trkpt lat="45.92074" lon="3.89399">
        <ele>749.97</ele>
        <time>2015-05-24T10:56:40Z</time>
      </trkpt>
      <trkpt lat="45.92078" lon="3.89371">
        <ele>753.33</ele>
        <time>2015-05-24T10:56:57Z</time>
      </trkpt>
      <trkpt lat="45.92084" lon="3.89345">
        <ele>756.21</ele>
        <time>2015-05-24T10:57:14Z</time>
      </trkpt>
      <trkpt lat="45.92092" lon="3.89331">
        <ele>758.14</ele>
        <time>2015-05-24T10:57:27Z</time>
      </trkpt>
      <trkpt lat="45.92106" lon="3.89308">
        <ele>760.54</ele>
        <time>2015-05-24T10:57:45Z</time>
      </trkpt>
      <trkpt lat="45.92117" lon="3.89285">
        <ele>764.39</ele>
        <time>2015-05-24T10:58:02Z</time>
      </trkpt>
      <trkpt lat="45.92124" lon="3.89258">
        <ele>768.71</ele>
        <time>2015-05-24T10:58:20Z</time>
      </trkpt>
      <trkpt lat="45.92129" lon="3.8923">
        <ele>770.63</ele>
        <time>2015-05-24T10:58:37Z</time>
      </trkpt>
      <trkpt lat="45.92133" lon="3.89198">
        <ele>771.11</ele>
        <time>2015-05-24T10:58:55Z</time>
      </trkpt>
      <trkpt lat="45.92134" lon="3.89162">
        <ele>773.04</ele>
        <time>2015-05-24T10:59:14Z</time>
      </trkpt>
      <trkpt lat="45.9213" lon="3.89127">
        <ele>774</ele>
        <time>2015-05-24T10:59:34Z</time>
      </trkpt>
      <trkpt lat="45.92122" lon="3.89093">
        <ele>774</ele>
        <time>2015-05-24T10:59:54Z</time>
      </trkpt>
      <trkpt lat="45.92112" lon="3.89068">
        <ele>774</ele>
        <time>2015-05-24T11:00:10Z</time>
      </trkpt>
      <trkpt lat="45.92104" lon="3.89055">
        <ele>774</ele>
        <time>2015-05-24T11:00:23Z</time>
      </trkpt>
      <trkpt lat="45.92102" lon="3.89052">
        <ele>774</ele>
        <time>2015-05-24T11:00:39Z</time>
      </trkpt>
      <trkpt lat="45.92101" lon="3.8905">
        <ele>774.48</ele>
        <time>2015-05-24T11:00:48Z</time>
      </trkpt>
      <trkpt lat="45.92089" lon="3.89031">
        <ele>776.4</ele>
        <time>2015-05-24T11:01:04Z</time>
      </trkpt>
      <trkpt lat="45.92079" lon="3.89006">
        <ele>777.36</ele>
        <time>2015-05-24T11:01:17Z</time>
      </trkpt>
      <trkpt lat="45.92079" lon="3.88994">
        <ele>776.88</ele>
        <time>2015-05-24T11:01:23Z</time>
      </trkpt>
      <trkpt lat="45.92079" lon="3.88992">
        <ele>776.88</ele>
        <time>2015-05-24T11:01:24Z</time>
      </trkpt>
      <trkpt lat="45.92079" lon="3.8899">
        <ele>776.88</ele>
        <time>2015-05-24T11:01:25Z</time>
      </trkpt>
      <trkpt lat="45.9208" lon="3.88988">
        <ele>776.88</ele>
        <time>2015-05-24T11:01:26Z</time>
      </trkpt>
      <trkpt lat="45.9208" lon="3.88986">
        <ele>776.88</ele>
        <time>2015-05-24T11:01:27Z</time>
      </trkpt>
      <trkpt lat="45.9208" lon="3.88983">
        <ele>776.4</ele>
        <time>2015-05-24T11:01:28Z</time>
      </trkpt>
      <trkpt lat="45.9208" lon="3.88981">
        <ele>776.4</ele>
        <time>2015-05-24T11:01:29Z</time>
      </trkpt>
      <trkpt lat="45.9208" lon="3.88979">
        <ele>776.4</ele>
        <time>2015-05-24T11:01:30Z</time>
      </trkpt>
      <trkpt lat="45.92082" lon="3.88972">
        <ele>775.44</ele>
        <time>2015-05-24T11:01:34Z</time>
      </trkpt>
      <trkpt lat="45.92083" lon="3.88971">
        <ele>775.92</ele>
        <time>2015-05-24T11:01:35Z</time>
      </trkpt>
      <trkpt lat="45.92084" lon="3.88969">
        <ele>775.92</ele>
        <time>2015-05-24T11:01:36Z</time>
      </trkpt>
      <trkpt lat="45.92085" lon="3.88967">
        <ele>775.92</ele>
        <time>2015-05-24T11:01:37Z</time>
      </trkpt>
      <trkpt lat="45.92085" lon="3.88966">
        <ele>775.92</ele>
        <time>2015-05-24T11:01:38Z</time>
      </trkpt>
      <trkpt lat="45.92086" lon="3.88964">
        <ele>776.4</ele>
        <time>2015-05-24T11:01:39Z</time>
      </trkpt>
      <trkpt lat="45.92092" lon="3.88943">
        <ele>773.52</ele>
        <time>2015-05-24T11:01:52Z</time>
      </trkpt>
      <trkpt lat="45.92094" lon="3.88929">
        <ele>773.04</ele>
        <time>2015-05-24T11:01:59Z</time>
      </trkpt>
      <trkpt lat="45.92094" lon="3.88927">
        <ele>772.56</ele>
        <time>2015-05-24T11:02:00Z</time>
      </trkpt>
      <trkpt lat="45.92094" lon="3.88925">
        <ele>772.08</ele>
        <time>2015-05-24T11:02:01Z</time>
      </trkpt>
      <trkpt lat="45.92094" lon="3.88922">
        <ele>771.6</ele>
        <time>2015-05-24T11:02:02Z</time>
      </trkpt>
      <trkpt lat="45.92095" lon="3.8892">
        <ele>771.6</ele>
        <time>2015-05-24T11:02:03Z</time>
      </trkpt>
      <trkpt lat="45.92096" lon="3.88918">
        <ele>771.6</ele>
        <time>2015-05-24T11:02:04Z</time>
      </trkpt>
      <trkpt lat="45.92096" lon="3.88916">
        <ele>772.08</ele>
        <time>2015-05-24T11:02:05Z</time>
      </trkpt>
      <trkpt lat="45.92096" lon="3.88914">
        <ele>772.08</ele>
        <time>2015-05-24T11:02:06Z</time>
      </trkpt>
      <trkpt lat="45.92097" lon="3.88913">
        <ele>772.08</ele>
        <time>2015-05-24T11:02:07Z</time>
      </trkpt>
      <trkpt lat="45.92097" lon="3.88911">
        <ele>772.08</ele>
        <time>2015-05-24T11:02:08Z</time>
      </trkpt>
      <trkpt lat="45.92097" lon="3.88909">
        <ele>772.08</ele>
        <time>2015-05-24T11:02:09Z</time>
      </trkpt>
      <trkpt lat="45.92112" lon="3.88884">
        <ele>771.11</ele>
        <time>2015-05-24T11:02:25Z</time>
      </trkpt>
      <trkpt lat="45.92132" lon="3.88872">
        <ele>770.63</ele>
        <time>2015-05-24T11:02:41Z</time>
      </trkpt>
      <trkpt lat="45.92153" lon="3.88859">
        <ele>771.6</ele>
        <time>2015-05-24T11:02:58Z</time>
      </trkpt>
      <trkpt lat="45.92173" lon="3.88837">
        <ele>772.08</ele>
        <time>2015-05-24T11:03:17Z</time>
      </trkpt>
      <trkpt lat="45.92187" lon="3.88813">
        <ele>771.11</ele>
        <time>2015-05-24T11:03:34Z</time>
      </trkpt>
      <trkpt lat="45.92203" lon="3.88784">
        <ele>770.15</ele>
        <time>2015-05-24T11:03:52Z</time>
      </trkpt>
      <trkpt lat="45.92216" lon="3.88764">
        <ele>768.23</ele>
        <time>2015-05-24T11:04:08Z</time>
      </trkpt>
      <trkpt lat="45.92223" lon="3.88739">
        <ele>768.23</ele>
        <time>2015-05-24T11:04:23Z</time>
      </trkpt>
      <trkpt lat="45.9223" lon="3.887">
        <ele>769.67</ele>
        <time>2015-05-24T11:04:44Z</time>
      </trkpt>
      <trkpt lat="45.92234" lon="3.88695">
        <ele>769.19</ele>
        <time>2015-05-24T11:04:56Z</time>
      </trkpt>
      <trkpt lat="45.92236" lon="3.88693">
        <ele>768.71</ele>
        <time>2015-05-24T11:05:00Z</time>
      </trkpt>
      <trkpt lat="45.92236" lon="3.88691">
        <ele>768.71</ele>
        <time>2015-05-24T11:05:01Z</time>
      </trkpt>
      <trkpt lat="45.92237" lon="3.88689">
        <ele>768.71</ele>
        <time>2015-05-24T11:05:02Z</time>
      </trkpt>
      <trkpt lat="45.92246" lon="3.88665">
        <ele>768.23</ele>
        <time>2015-05-24T11:05:17Z</time>
      </trkpt>
      <trkpt lat="45.92253" lon="3.88644">
        <ele>768.23</ele>
        <time>2015-05-24T11:05:33Z</time>
      </trkpt>
      <trkpt lat="45.92254" lon="3.88641">
        <ele>767.75</ele>
        <time>2015-05-24T11:05:35Z</time>
      </trkpt>
      <trkpt lat="45.92256" lon="3.88628">
        <ele>766.79</ele>
        <time>2015-05-24T11:05:42Z</time>
      </trkpt>
      <trkpt lat="45.92257" lon="3.88626">
        <ele>766.31</ele>
        <time>2015-05-24T11:05:43Z</time>
      </trkpt>
      <trkpt lat="45.92258" lon="3.88624">
        <ele>766.31</ele>
        <time>2015-05-24T11:05:44Z</time>
      </trkpt>
      <trkpt lat="45.92258" lon="3.88622">
        <ele>766.79</ele>
        <time>2015-05-24T11:05:45Z</time>
      </trkpt>
      <trkpt lat="45.92263" lon="3.88599">
        <ele>771.11</ele>
        <time>2015-05-24T11:05:58Z</time>
      </trkpt>
      <trkpt lat="45.92266" lon="3.88574">
        <ele>774.48</ele>
        <time>2015-05-24T11:06:10Z</time>
      </trkpt>
      <trkpt lat="45.92269" lon="3.88554">
        <ele>775.92</ele>
        <time>2015-05-24T11:06:26Z</time>
      </trkpt>
      <trkpt lat="45.92269" lon="3.88539">
        <ele>776.88</ele>
        <time>2015-05-24T11:06:46Z</time>
      </trkpt>
      <trkpt lat="45.92266" lon="3.88517">
        <ele>777.36</ele>
        <time>2015-05-24T11:06:59Z</time>
      </trkpt>
      <trkpt lat="45.92265" lon="3.88515">
        <ele>777.36</ele>
        <time>2015-05-24T11:07:00Z</time>
      </trkpt>
      <trkpt lat="45.92263" lon="3.88514">
        <ele>777.36</ele>
        <time>2015-05-24T11:07:01Z</time>
      </trkpt>
      <trkpt lat="45.92261" lon="3.88513">
        <ele>777.36</ele>
        <time>2015-05-24T11:07:02Z</time>
      </trkpt>
      <trkpt lat="45.9226" lon="3.88512">
        <ele>776.88</ele>
        <time>2015-05-24T11:07:03Z</time>
      </trkpt>
      <trkpt lat="45.92238" lon="3.88499">
        <ele>777.36</ele>
        <time>2015-05-24T11:07:16Z</time>
      </trkpt>
      <trkpt lat="45.92224" lon="3.88489">
        <ele>777.36</ele>
        <time>2015-05-24T11:07:29Z</time>
      </trkpt>
      <trkpt lat="45.92218" lon="3.88479">
        <ele>777.84</ele>
        <time>2015-05-24T11:07:36Z</time>
      </trkpt>
      <trkpt lat="45.92196" lon="3.88471">
        <ele>782.17</ele>
        <time>2015-05-24T11:07:50Z</time>
      </trkpt>
      <trkpt lat="45.92176" lon="3.88464">
        <ele>782.17</ele>
        <time>2015-05-24T11:08:05Z</time>
      </trkpt>
      <trkpt lat="45.92166" lon="3.88461">
        <ele>780.25</ele>
        <time>2015-05-24T11:08:14Z</time>
      </trkpt>
      <trkpt lat="45.92161" lon="3.88465">
        <ele>781.21</ele>
        <time>2015-05-24T11:08:33Z</time>
      </trkpt>
      <trkpt lat="45.92161" lon="3.88463">
        <ele>781.21</ele>
        <time>2015-05-24T11:08:51Z</time>
      </trkpt>
      <trkpt lat="45.92162" lon="3.88457">
        <ele>778.32</ele>
        <time>2015-05-24T11:09:01Z</time>
      </trkpt>
      <trkpt lat="45.92161" lon="3.88459">
        <ele>781.21</ele>
        <time>2015-05-24T11:09:16Z</time>
      </trkpt>
      <trkpt lat="45.9216" lon="3.88463">
        <ele>780.73</ele>
        <time>2015-05-24T11:09:50Z</time>
      </trkpt>
      <trkpt lat="45.92154" lon="3.8847">
        <ele>777.36</ele>
        <time>2015-05-24T11:10:15Z</time>
      </trkpt>
      <trkpt lat="45.92151" lon="3.8847">
        <ele>773.52</ele>
        <time>2015-05-24T11:10:36Z</time>
      </trkpt>
      <trkpt lat="45.92126" lon="3.88486">
        <ele>772.56</ele>
        <time>2015-05-24T11:10:56Z</time>
      </trkpt>
      <trkpt lat="45.92119" lon="3.88492">
        <ele>772.08</ele>
        <time>2015-05-24T11:11:02Z</time>
      </trkpt>
      <trkpt lat="45.92114" lon="3.88495">
        <ele>772.08</ele>
        <time>2015-05-24T11:11:06Z</time>
      </trkpt>
      <trkpt lat="45.92097" lon="3.88506">
        <ele>772.56</ele>
        <time>2015-05-24T11:11:23Z</time>
      </trkpt>
      <trkpt lat="45.92083" lon="3.88514">
        <ele>772.56</ele>
        <time>2015-05-24T11:11:38Z</time>
      </trkpt>
      <trkpt lat="45.92062" lon="3.88527">
        <ele>773.04</ele>
        <time>2015-05-24T11:11:57Z</time>
      </trkpt>
      <trkpt lat="45.92045" lon="3.88537">
        <ele>773.52</ele>
        <time>2015-05-24T11:12:14Z</time>
      </trkpt>
      <trkpt lat="45.92026" lon="3.8855">
        <ele>774</ele>
        <time>2015-05-24T11:12:31Z</time>
      </trkpt>
      <trkpt lat="45.92004" lon="3.88562">
        <ele>775.92</ele>
        <time>2015-05-24T11:12:50Z</time>
      </trkpt>
      <trkpt lat="45.92" lon="3.88566">
        <ele>776.88</ele>
        <time>2015-05-24T11:13:16Z</time>
      </trkpt>
      <trkpt lat="45.91994" lon="3.8857">
        <ele>778.81</ele>
        <time>2015-05-24T11:13:35Z</time>
      </trkpt>
      <trkpt lat="45.91984" lon="3.88577">
        <ele>780.25</ele>
        <time>2015-05-24T11:13:53Z</time>
      </trkpt>
      <trkpt lat="45.91979" lon="3.8858">
        <ele>781.21</ele>
        <time>2015-05-24T11:14:16Z</time>
      </trkpt>
      <trkpt lat="45.91968" lon="3.88586">
        <ele>777.84</ele>
        <time>2015-05-24T11:14:31Z</time>
      </trkpt>
      <trkpt lat="45.91962" lon="3.88589">
        <ele>779.77</ele>
        <time>2015-05-24T11:14:51Z</time>
      </trkpt>
      <trkpt lat="45.91961" lon="3.88591">
        <ele>779.77</ele>
        <time>2015-05-24T11:15:11Z</time>
      </trkpt>
      <trkpt lat="45.91937" lon="3.88592">
        <ele>782.17</ele>
        <time>2015-05-24T11:15:29Z</time>
      </trkpt>
      <trkpt lat="45.91912" lon="3.88591">
        <ele>782.65</ele>
        <time>2015-05-24T11:15:49Z</time>
      </trkpt>
      <trkpt lat="45.91886" lon="3.88594">
        <ele>785.53</ele>
        <time>2015-05-24T11:16:09Z</time>
      </trkpt>
      <trkpt lat="45.91861" lon="3.88594">
        <ele>787.94</ele>
        <time>2015-05-24T11:16:29Z</time>
      </trkpt>
      <trkpt lat="45.91835" lon="3.88597">
        <ele>790.82</ele>
        <time>2015-05-24T11:16:50Z</time>
      </trkpt>
      <trkpt lat="45.91812" lon="3.88599">
        <ele>793.22</ele>
        <time>2015-05-24T11:17:11Z</time>
      </trkpt>
      <trkpt lat="45.9179" lon="3.88599">
        <ele>793.71</ele>
        <time>2015-05-24T11:17:29Z</time>
      </trkpt>
      <trkpt lat="45.91768" lon="3.88608">
        <ele>795.15</ele>
        <time>2015-05-24T11:17:48Z</time>
      </trkpt>
      <trkpt lat="45.91754" lon="3.88618">
        <ele>795.63</ele>
        <time>2015-05-24T11:17:58Z</time>
      </trkpt>
      <trkpt lat="45.91722" lon="3.88639">
        <ele>798.03</ele>
        <time>2015-05-24T11:18:15Z</time>
      </trkpt>
      <trkpt lat="45.917" lon="3.88663">
        <ele>797.55</ele>
        <time>2015-05-24T11:18:34Z</time>
      </trkpt>
      <trkpt lat="45.91679" lon="3.88688">
        <ele>791.3</ele>
        <time>2015-05-24T11:18:56Z</time>
      </trkpt>
      <trkpt lat="45.91656" lon="3.88708">
        <ele>786.5</ele>
        <time>2015-05-24T11:19:17Z</time>
      </trkpt>
      <trkpt lat="45.91641" lon="3.88733">
        <ele>791.3</ele>
        <time>2015-05-24T11:19:37Z</time>
      </trkpt>
      <trkpt lat="45.91615" lon="3.88752">
        <ele>792.26</ele>
        <time>2015-05-24T11:19:56Z</time>
      </trkpt>
      <trkpt lat="45.91594" lon="3.88761">
        <ele>793.71</ele>
        <time>2015-05-24T11:20:13Z</time>
      </trkpt>
      <trkpt lat="45.91569" lon="3.88777">
        <ele>796.59</ele>
        <time>2015-05-24T11:20:31Z</time>
      </trkpt>
      <trkpt lat="45.91549" lon="3.88777">
        <ele>797.55</ele>
        <time>2015-05-24T11:20:48Z</time>
      </trkpt>
      <trkpt lat="45.91527" lon="3.88778">
        <ele>796.59</ele>
        <time>2015-05-24T11:21:04Z</time>
      </trkpt>
      <trkpt lat="45.91505" lon="3.88782">
        <ele>797.07</ele>
        <time>2015-05-24T11:21:22Z</time>
      </trkpt>
      <trkpt lat="45.91482" lon="3.88775">
        <ele>798.03</ele>
        <time>2015-05-24T11:21:40Z</time>
      </trkpt>
      <trkpt lat="45.91453" lon="3.88776">
        <ele>798.51</ele>
        <time>2015-05-24T11:21:58Z</time>
      </trkpt>
      <trkpt lat="45.91426" lon="3.88769">
        <ele>793.71</ele>
        <time>2015-05-24T11:22:18Z</time>
      </trkpt>
      <trkpt lat="45.91402" lon="3.88764">
        <ele>793.71</ele>
        <time>2015-05-24T11:22:38Z</time>
      </trkpt>
      <trkpt lat="45.91382" lon="3.88768">
        <ele>793.22</ele>
        <time>2015-05-24T11:22:53Z</time>
      </trkpt>
      <trkpt lat="45.91357" lon="3.88773">
        <ele>788.42</ele>
        <time>2015-05-24T11:23:12Z</time>
      </trkpt>
      <trkpt lat="45.91334" lon="3.88772">
        <ele>787.46</ele>
        <time>2015-05-24T11:23:28Z</time>
      </trkpt>
      <trkpt lat="45.91313" lon="3.88774">
        <ele>785.05</ele>
        <time>2015-05-24T11:23:45Z</time>
      </trkpt>
      <trkpt lat="45.91313" lon="3.88774">
        <ele>781.69</ele>
        <time>2015-05-24T11:24:15Z</time>
      </trkpt>
      <trkpt lat="45.91304" lon="3.88782">
        <ele>779.77</ele>
        <time>2015-05-24T11:24:32Z</time>
      </trkpt>
      <trkpt lat="45.91297" lon="3.88789">
        <ele>779.29</ele>
        <time>2015-05-24T11:24:51Z</time>
      </trkpt>
      <trkpt lat="45.91285" lon="3.888">
        <ele>776.88</ele>
        <time>2015-05-24T11:25:03Z</time>
      </trkpt>
      <trkpt lat="45.91264" lon="3.8881">
        <ele>774.48</ele>
        <time>2015-05-24T11:25:21Z</time>
      </trkpt>
      <trkpt lat="45.91241" lon="3.88819">
        <ele>773.04</ele>
        <time>2015-05-24T11:25:40Z</time>
      </trkpt>
      <trkpt lat="45.91216" lon="3.8883">
        <ele>769.19</ele>
        <time>2015-05-24T11:26:00Z</time>
      </trkpt>
      <trkpt lat="45.91196" lon="3.8884">
        <ele>765.35</ele>
        <time>2015-05-24T11:26:18Z</time>
      </trkpt>
      <trkpt lat="45.9117" lon="3.88852">
        <ele>757.18</ele>
        <time>2015-05-24T11:26:35Z</time>
      </trkpt>
      <trkpt lat="45.91151" lon="3.88855">
        <ele>746.6</ele>
        <time>2015-05-24T11:26:54Z</time>
      </trkpt>
      <trkpt lat="45.91132" lon="3.88859">
        <ele>739.39</ele>
        <time>2015-05-24T11:27:10Z</time>
      </trkpt>
      <trkpt lat="45.91104" lon="3.88867">
        <ele>735.55</ele>
        <time>2015-05-24T11:27:27Z</time>
      </trkpt>
      <trkpt lat="45.91087" lon="3.88863">
        <ele>726.41</ele>
        <time>2015-05-24T11:27:44Z</time>
      </trkpt>
      <trkpt lat="45.91082" lon="3.88855">
        <ele>715.36</ele>
        <time>2015-05-24T11:28:04Z</time>
      </trkpt>
      <trkpt lat="45.91081" lon="3.88867">
        <ele>709.11</ele>
        <time>2015-05-24T11:28:15Z</time>
      </trkpt>
      <trkpt lat="45.91077" lon="3.88901">
        <ele>700.94</ele>
        <time>2015-05-24T11:28:32Z</time>
      </trkpt>
      <trkpt lat="45.91064" lon="3.88965">
        <ele>720.16</ele>
        <time>2015-05-24T11:28:50Z</time>
      </trkpt>
      <trkpt lat="45.91062" lon="3.89014">
        <ele>725.93</ele>
        <time>2015-05-24T11:29:08Z</time>
      </trkpt>
      <trkpt lat="45.91073" lon="3.8904">
        <ele>730.26</ele>
        <time>2015-05-24T11:29:23Z</time>
      </trkpt>
      <trkpt lat="45.91052" lon="3.89084">
        <ele>728.82</ele>
        <time>2015-05-24T11:29:41Z</time>
      </trkpt>
      <trkpt lat="45.91039" lon="3.89111">
        <ele>730.74</ele>
        <time>2015-05-24T11:29:59Z</time>
      </trkpt>
      <trkpt lat="45.91011" lon="3.89133">
        <ele>727.86</ele>
        <time>2015-05-24T11:30:18Z</time>
      </trkpt>
      <trkpt lat="45.90971" lon="3.89161">
        <ele>718.24</ele>
        <time>2015-05-24T11:30:41Z</time>
      </trkpt>
      <trkpt lat="45.90961" lon="3.8917">
        <ele>714.88</ele>
        <time>2015-05-24T11:30:49Z</time>
      </trkpt>
      <trkpt lat="45.90941" lon="3.89179">
        <ele>715.36</ele>
        <time>2015-05-24T11:31:04Z</time>
      </trkpt>
      <trkpt lat="45.90926" lon="3.8918">
        <ele>716.8</ele>
        <time>2015-05-24T11:31:12Z</time>
      </trkpt>
      <trkpt lat="45.90924" lon="3.8918">
        <ele>716.8</ele>
        <time>2015-05-24T11:31:13Z</time>
      </trkpt>
      <trkpt lat="45.90922" lon="3.8918">
        <ele>716.8</ele>
        <time>2015-05-24T11:31:14Z</time>
      </trkpt>
      <trkpt lat="45.9092" lon="3.8918">
        <ele>717.28</ele>
        <time>2015-05-24T11:31:15Z</time>
      </trkpt>
      <trkpt lat="45.90919" lon="3.8918">
        <ele>717.28</ele>
        <time>2015-05-24T11:31:16Z</time>
      </trkpt>
      <trkpt lat="45.90917" lon="3.8918">
        <ele>717.76</ele>
        <time>2015-05-24T11:31:17Z</time>
      </trkpt>
      <trkpt lat="45.90888" lon="3.89183">
        <ele>718.72</ele>
        <time>2015-05-24T11:31:31Z</time>
      </trkpt>
      <trkpt lat="45.90835" lon="3.89206">
        <ele>718.72</ele>
        <time>2015-05-24T11:31:47Z</time>
      </trkpt>
      <trkpt lat="45.90807" lon="3.89212">
        <ele>719.2</ele>
        <time>2015-05-24T11:32:01Z</time>
      </trkpt>
      <trkpt lat="45.90786" lon="3.89208">
        <ele>715.84</ele>
        <time>2015-05-24T11:32:17Z</time>
      </trkpt>
      <trkpt lat="45.90771" lon="3.89201">
        <ele>714.4</ele>
        <time>2015-05-24T11:32:28Z</time>
      </trkpt>
      <trkpt lat="45.90757" lon="3.89183">
        <ele>711.99</ele>
        <time>2015-05-24T11:32:43Z</time>
      </trkpt>
      <trkpt lat="45.9074" lon="3.89168">
        <ele>712.95</ele>
        <time>2015-05-24T11:33:00Z</time>
      </trkpt>
      <trkpt lat="45.90735" lon="3.89168">
        <ele>712.95</ele>
        <time>2015-05-24T11:33:04Z</time>
      </trkpt>
      <trkpt lat="45.90734" lon="3.89168">
        <ele>712.95</ele>
        <time>2015-05-24T11:33:05Z</time>
      </trkpt>
      <trkpt lat="45.90719" lon="3.89157">
        <ele>714.4</ele>
        <time>2015-05-24T11:33:18Z</time>
      </trkpt>
      <trkpt lat="45.907" lon="3.89145">
        <ele>714.88</ele>
        <time>2015-05-24T11:33:35Z</time>
      </trkpt>
      <trkpt lat="45.90675" lon="3.89135">
        <ele>715.84</ele>
        <time>2015-05-24T11:33:53Z</time>
      </trkpt>
      <trkpt lat="45.90652" lon="3.89119">
        <ele>718.24</ele>
        <time>2015-05-24T11:34:09Z</time>
      </trkpt>
      <trkpt lat="45.90634" lon="3.89098">
        <ele>717.76</ele>
        <time>2015-05-24T11:34:25Z</time>
      </trkpt>
      <trkpt lat="45.90613" lon="3.89099">
        <ele>716.32</ele>
        <time>2015-05-24T11:34:40Z</time>
      </trkpt>
      <trkpt lat="45.90591" lon="3.89112">
        <ele>714.88</ele>
        <time>2015-05-24T11:34:58Z</time>
      </trkpt>
      <trkpt lat="45.90569" lon="3.89125">
        <ele>712.47</ele>
        <time>2015-05-24T11:35:13Z</time>
      </trkpt>
      <trkpt lat="45.90545" lon="3.8913">
        <ele>712.47</ele>
        <time>2015-05-24T11:35:29Z</time>
      </trkpt>
      <trkpt lat="45.90516" lon="3.89128">
        <ele>715.84</ele>
        <time>2015-05-24T11:35:47Z</time>
      </trkpt>
      <trkpt lat="45.90491" lon="3.89111">
        <ele>711.99</ele>
        <time>2015-05-24T11:36:05Z</time>
      </trkpt>
      <trkpt lat="45.90468" lon="3.89098">
        <ele>707.19</ele>
        <time>2015-05-24T11:36:22Z</time>
      </trkpt>
      <trkpt lat="45.90446" lon="3.89079">
        <ele>704.78</ele>
        <time>2015-05-24T11:36:40Z</time>
      </trkpt>
      <trkpt lat="45.90419" lon="3.89065">
        <ele>703.34</ele>
        <time>2015-05-24T11:37:00Z</time>
      </trkpt>
      <trkpt lat="45.90395" lon="3.89058">
        <ele>700.94</ele>
        <time>2015-05-24T11:37:17Z</time>
      </trkpt>
      <trkpt lat="45.9037" lon="3.89055">
        <ele>700.46</ele>
        <time>2015-05-24T11:37:33Z</time>
      </trkpt>
      <trkpt lat="45.90346" lon="3.89049">
        <ele>698.05</ele>
        <time>2015-05-24T11:37:50Z</time>
      </trkpt>
      <trkpt lat="45.90319" lon="3.89034">
        <ele>695.65</ele>
        <time>2015-05-24T11:38:11Z</time>
      </trkpt>
      <trkpt lat="45.90295" lon="3.89016">
        <ele>692.77</ele>
        <time>2015-05-24T11:38:30Z</time>
      </trkpt>
      <trkpt lat="45.9027" lon="3.89005">
        <ele>689.4</ele>
        <time>2015-05-24T11:38:48Z</time>
      </trkpt>
      <trkpt lat="45.90249" lon="3.88995">
        <ele>688.44</ele>
        <time>2015-05-24T11:39:03Z</time>
      </trkpt>
      <trkpt lat="45.90223" lon="3.88986">
        <ele>687.48</ele>
        <time>2015-05-24T11:39:21Z</time>
      </trkpt>
      <trkpt lat="45.90215" lon="3.88969">
        <ele>686.52</ele>
        <time>2015-05-24T11:39:39Z</time>
      </trkpt>
      <trkpt lat="45.90215" lon="3.88959">
        <ele>686.52</ele>
        <time>2015-05-24T11:39:59Z</time>
      </trkpt>
      <trkpt lat="45.90215" lon="3.88962">
        <ele>684.6</ele>
        <time>2015-05-24T11:40:13Z</time>
      </trkpt>
      <trkpt lat="45.90216" lon="3.88963">
        <ele>682.67</ele>
        <time>2015-05-24T11:40:26Z</time>
      </trkpt>
      <trkpt lat="45.90213" lon="3.88962">
        <ele>683.15</ele>
        <time>2015-05-24T11:40:38Z</time>
      </trkpt>
      <trkpt lat="45.90212" lon="3.88961">
        <ele>684.6</ele>
        <time>2015-05-24T11:40:54Z</time>
      </trkpt>
      <trkpt lat="45.90214" lon="3.88967">
        <ele>686.52</ele>
        <time>2015-05-24T11:41:17Z</time>
      </trkpt>
      <trkpt lat="45.90215" lon="3.88963">
        <ele>689.4</ele>
        <time>2015-05-24T11:41:46Z</time>
      </trkpt>
      <trkpt lat="45.90217" lon="3.88965">
        <ele>687.48</ele>
        <time>2015-05-24T11:42:08Z</time>
      </trkpt>
      <trkpt lat="45.90216" lon="3.88965">
        <ele>687.48</ele>
        <time>2015-05-24T11:42:40Z</time>
      </trkpt>
      <trkpt lat="45.90215" lon="3.88961">
        <ele>690.84</ele>
        <time>2015-05-24T11:43:11Z</time>
      </trkpt>
      <trkpt lat="45.90215" lon="3.88958">
        <ele>686.52</ele>
        <time>2015-05-24T11:43:41Z</time>
      </trkpt>
      <trkpt lat="45.90213" lon="3.88963">
        <ele>683.63</ele>
        <time>2015-05-24T11:43:55Z</time>
      </trkpt>
      <trkpt lat="45.90212" lon="3.88964">
        <ele>682.67</ele>
        <time>2015-05-24T11:44:11Z</time>
      </trkpt>
      <trkpt lat="45.90212" lon="3.88949">
        <ele>681.71</ele>
        <time>2015-05-24T11:44:24Z</time>
      </trkpt>
      <trkpt lat="45.9021" lon="3.8893">
        <ele>681.23</ele>
        <time>2015-05-24T11:44:37Z</time>
      </trkpt>
      <trkpt lat="45.90212" lon="3.8892">
        <ele>680.75</ele>
        <time>2015-05-24T11:44:44Z</time>
      </trkpt>
      <trkpt lat="45.90207" lon="3.88903">
        <ele>678.35</ele>
        <time>2015-05-24T11:44:56Z</time>
      </trkpt>
      <trkpt lat="45.902" lon="3.88891">
        <ele>675.46</ele>
        <time>2015-05-24T11:45:06Z</time>
      </trkpt>
      <trkpt lat="45.90187" lon="3.88873">
        <ele>676.42</ele>
        <time>2015-05-24T11:45:21Z</time>
      </trkpt>
      <trkpt lat="45.90174" lon="3.88853">
        <ele>674.98</ele>
        <time>2015-05-24T11:45:37Z</time>
      </trkpt>
      <trkpt lat="45.90162" lon="3.88844">
        <ele>670.66</ele>
        <time>2015-05-24T11:45:52Z</time>
      </trkpt>
      <trkpt lat="45.90145" lon="3.88826">
        <ele>668.25</ele>
        <time>2015-05-24T11:46:08Z</time>
      </trkpt>
      <trkpt lat="45.90132" lon="3.88814">
        <ele>667.29</ele>
        <time>2015-05-24T11:46:22Z</time>
      </trkpt>
      <trkpt lat="45.90119" lon="3.88806">
        <ele>666.33</ele>
        <time>2015-05-24T11:46:37Z</time>
      </trkpt>
      <trkpt lat="45.90105" lon="3.888">
        <ele>665.37</ele>
        <time>2015-05-24T11:46:49Z</time>
      </trkpt>
      <trkpt lat="45.90104" lon="3.88799">
        <ele>664.89</ele>
        <time>2015-05-24T11:46:50Z</time>
      </trkpt>
      <trkpt lat="45.90089" lon="3.88794">
        <ele>664.41</ele>
        <time>2015-05-24T11:47:02Z</time>
      </trkpt>
      <trkpt lat="45.90068" lon="3.88788">
        <ele>663.93</ele>
        <time>2015-05-24T11:47:15Z</time>
      </trkpt>
      <trkpt lat="45.90066" lon="3.88788">
        <ele>663.45</ele>
        <time>2015-05-24T11:47:16Z</time>
      </trkpt>
      <trkpt lat="45.90056" lon="3.88795">
        <ele>660.56</ele>
        <time>2015-05-24T11:47:28Z</time>
      </trkpt>
      <trkpt lat="45.90054" lon="3.88796">
        <ele>660.56</ele>
        <time>2015-05-24T11:47:29Z</time>
      </trkpt>
      <trkpt lat="45.90036" lon="3.88799">
        <ele>657.2</ele>
        <time>2015-05-24T11:47:42Z</time>
      </trkpt>
      <trkpt lat="45.90018" lon="3.88798">
        <ele>655.28</ele>
        <time>2015-05-24T11:47:56Z</time>
      </trkpt>
      <trkpt lat="45.90005" lon="3.88799">
        <ele>654.8</ele>
        <time>2015-05-24T11:48:09Z</time>
      </trkpt>
      <trkpt lat="45.89997" lon="3.88792">
        <ele>653.83</ele>
        <time>2015-05-24T11:48:18Z</time>
      </trkpt>
      <trkpt lat="45.89991" lon="3.88778">
        <ele>652.39</ele>
        <time>2015-05-24T11:48:31Z</time>
      </trkpt>
      <trkpt lat="45.89984" lon="3.88759">
        <ele>646.62</ele>
        <time>2015-05-24T11:48:48Z</time>
      </trkpt>
      <trkpt lat="45.89979" lon="3.88757">
        <ele>646.14</ele>
        <time>2015-05-24T11:48:53Z</time>
      </trkpt>
      <trkpt lat="45.89965" lon="3.88752">
        <ele>645.18</ele>
        <time>2015-05-24T11:49:05Z</time>
      </trkpt>
      <trkpt lat="45.89947" lon="3.88765">
        <ele>645.66</ele>
        <time>2015-05-24T11:49:21Z</time>
      </trkpt>
      <trkpt lat="45.89933" lon="3.88758">
        <ele>643.74</ele>
        <time>2015-05-24T11:49:35Z</time>
      </trkpt>
      <trkpt lat="45.89929" lon="3.88755">
        <ele>643.26</ele>
        <time>2015-05-24T11:49:38Z</time>
      </trkpt>
      <trkpt lat="45.89911" lon="3.88736">
        <ele>640.38</ele>
        <time>2015-05-24T11:49:53Z</time>
      </trkpt>
      <trkpt lat="45.89896" lon="3.88738">
        <ele>634.61</ele>
        <time>2015-05-24T11:50:08Z</time>
      </trkpt>
      <trkpt lat="45.89892" lon="3.88744">
        <ele>632.68</ele>
        <time>2015-05-24T11:50:14Z</time>
      </trkpt>
      <trkpt lat="45.89891" lon="3.88745">
        <ele>632.2</ele>
        <time>2015-05-24T11:50:15Z</time>
      </trkpt>
      <trkpt lat="45.89891" lon="3.88747">
        <ele>632.2</ele>
        <time>2015-05-24T11:50:16Z</time>
      </trkpt>
      <trkpt lat="45.8989" lon="3.8875">
        <ele>631.72</ele>
        <time>2015-05-24T11:50:18Z</time>
      </trkpt>
      <trkpt lat="45.89889" lon="3.88751">
        <ele>631.72</ele>
        <time>2015-05-24T11:50:19Z</time>
      </trkpt>
      <trkpt lat="45.89888" lon="3.88753">
        <ele>631.72</ele>
        <time>2015-05-24T11:50:20Z</time>
      </trkpt>
      <trkpt lat="45.89887" lon="3.88754">
        <ele>631.72</ele>
        <time>2015-05-24T11:50:21Z</time>
      </trkpt>
      <trkpt lat="45.89886" lon="3.88756">
        <ele>631.24</ele>
        <time>2015-05-24T11:50:22Z</time>
      </trkpt>
      <trkpt lat="45.89876" lon="3.88772">
        <ele>631.24</ele>
        <time>2015-05-24T11:50:36Z</time>
      </trkpt>
      <trkpt lat="45.89875" lon="3.88773">
        <ele>631.72</ele>
        <time>2015-05-24T11:50:38Z</time>
      </trkpt>
      <trkpt lat="45.89874" lon="3.88774">
        <ele>631.72</ele>
        <time>2015-05-24T11:50:39Z</time>
      </trkpt>
      <trkpt lat="45.89872" lon="3.88776">
        <ele>631.24</ele>
        <time>2015-05-24T11:50:41Z</time>
      </trkpt>
      <trkpt lat="45.89871" lon="3.88777">
        <ele>631.24</ele>
        <time>2015-05-24T11:50:42Z</time>
      </trkpt>
      <trkpt lat="45.89865" lon="3.88782">
        <ele>631.72</ele>
        <time>2015-05-24T11:50:53Z</time>
      </trkpt>
      <trkpt lat="45.89867" lon="3.88785">
        <ele>631.72</ele>
        <time>2015-05-24T11:51:05Z</time>
      </trkpt>
      <trkpt lat="45.89868" lon="3.88789">
        <ele>632.2</ele>
        <time>2015-05-24T11:51:11Z</time>
      </trkpt>
      <trkpt lat="45.89866" lon="3.88788">
        <ele>632.68</ele>
        <time>2015-05-24T11:51:27Z</time>
      </trkpt>
      <trkpt lat="45.89867" lon="3.8879">
        <ele>632.68</ele>
        <time>2015-05-24T11:51:45Z</time>
      </trkpt>
      <trkpt lat="45.89867" lon="3.88781">
        <ele>632.68</ele>
        <time>2015-05-24T11:52:15Z</time>
      </trkpt>
      <trkpt lat="45.89865" lon="3.88782">
        <ele>629.8</ele>
        <time>2015-05-24T11:52:46Z</time>
      </trkpt>
      <trkpt lat="45.89866" lon="3.88788">
        <ele>631.72</ele>
        <time>2015-05-24T11:53:09Z</time>
      </trkpt>
      <trkpt lat="45.89867" lon="3.8879">
        <ele>628.84</ele>
        <time>2015-05-24T11:53:47Z</time>
      </trkpt>
      <trkpt lat="45.89867" lon="3.88786">
        <ele>632.68</ele>
        <time>2015-05-24T11:54:16Z</time>
      </trkpt>
      <trkpt lat="45.89867" lon="3.88786">
        <ele>632.68</ele>
        <time>2015-05-24T11:54:47Z</time>
      </trkpt>
      <trkpt lat="45.89868" lon="3.8879">
        <ele>632.68</ele>
        <time>2015-05-24T11:55:09Z</time>
      </trkpt>
      <trkpt lat="45.89868" lon="3.88788">
        <ele>634.13</ele>
        <time>2015-05-24T11:55:37Z</time>
      </trkpt>
      <trkpt lat="45.89867" lon="3.88786">
        <ele>633.65</ele>
        <time>2015-05-24T11:55:40Z</time>
      </trkpt>
      <trkpt lat="45.89868" lon="3.88791">
        <ele>630.28</ele>
        <time>2015-05-24T11:55:55Z</time>
      </trkpt>
      <trkpt lat="45.89867" lon="3.88791">
        <ele>628.36</ele>
        <time>2015-05-24T11:56:16Z</time>
      </trkpt>
      <trkpt lat="45.89865" lon="3.88787">
        <ele>628.84</ele>
        <time>2015-05-24T11:56:33Z</time>
      </trkpt>
      <trkpt lat="45.89863" lon="3.88789">
        <ele>630.28</ele>
        <time>2015-05-24T11:56:51Z</time>
      </trkpt>
      <trkpt lat="45.89861" lon="3.8879">
        <ele>631.24</ele>
        <time>2015-05-24T11:57:18Z</time>
      </trkpt>
      <trkpt lat="45.8986" lon="3.88789">
        <ele>628.84</ele>
        <time>2015-05-24T11:57:37Z</time>
      </trkpt>
      <trkpt lat="45.89858" lon="3.8879">
        <ele>628.36</ele>
        <time>2015-05-24T11:57:43Z</time>
      </trkpt>
      <trkpt lat="45.89853" lon="3.88793">
        <ele>628.84</ele>
        <time>2015-05-24T11:57:49Z</time>
      </trkpt>
      <trkpt lat="45.89852" lon="3.88794">
        <ele>628.84</ele>
        <time>2015-05-24T11:57:50Z</time>
      </trkpt>
      <trkpt lat="45.89825" lon="3.88791">
        <ele>625.47</ele>
        <time>2015-05-24T11:58:11Z</time>
      </trkpt>
      <trkpt lat="45.89809" lon="3.88781">
        <ele>622.11</ele>
        <time>2015-05-24T11:58:26Z</time>
      </trkpt>
      <trkpt lat="45.89796" lon="3.88778">
        <ele>618.26</ele>
        <time>2015-05-24T11:58:40Z</time>
      </trkpt>
      <trkpt lat="45.89777" lon="3.8877">
        <ele>620.67</ele>
        <time>2015-05-24T11:59:00Z</time>
      </trkpt>
      <trkpt lat="45.8976" lon="3.88758">
        <ele>622.11</ele>
        <time>2015-05-24T11:59:14Z</time>
      </trkpt>
      <trkpt lat="45.89741" lon="3.88745">
        <ele>618.75</ele>
        <time>2015-05-24T11:59:30Z</time>
      </trkpt>
      <trkpt lat="45.89722" lon="3.88737">
        <ele>613.46</ele>
        <time>2015-05-24T11:59:45Z</time>
      </trkpt>
      <trkpt lat="45.89705" lon="3.88735">
        <ele>611.54</ele>
        <time>2015-05-24T12:00:01Z</time>
      </trkpt>
      <trkpt lat="45.89686" lon="3.88731">
        <ele>609.13</ele>
        <time>2015-05-24T12:00:18Z</time>
      </trkpt>
      <trkpt lat="45.89667" lon="3.88721">
        <ele>606.25</ele>
        <time>2015-05-24T12:00:34Z</time>
      </trkpt>
      <trkpt lat="45.89647" lon="3.88714">
        <ele>600.48</ele>
        <time>2015-05-24T12:00:51Z</time>
      </trkpt>
      <trkpt lat="45.8963" lon="3.88703">
        <ele>594.23</ele>
        <time>2015-05-24T12:01:07Z</time>
      </trkpt>
      <trkpt lat="45.89611" lon="3.88697">
        <ele>590.39</ele>
        <time>2015-05-24T12:01:23Z</time>
      </trkpt>
      <trkpt lat="45.89606" lon="3.88696">
        <ele>590.39</ele>
        <time>2015-05-24T12:01:27Z</time>
      </trkpt>
      <trkpt lat="45.89593" lon="3.88688">
        <ele>587.98</ele>
        <time>2015-05-24T12:01:41Z</time>
      </trkpt>
      <trkpt lat="45.89591" lon="3.88685">
        <ele>587.98</ele>
        <time>2015-05-24T12:01:44Z</time>
      </trkpt>
      <trkpt lat="45.8958" lon="3.88669">
        <ele>587.98</ele>
        <time>2015-05-24T12:01:57Z</time>
      </trkpt>
      <trkpt lat="45.89558" lon="3.88659">
        <ele>590.39</ele>
        <time>2015-05-24T12:02:14Z</time>
      </trkpt>
      <trkpt lat="45.89542" lon="3.88647">
        <ele>592.79</ele>
        <time>2015-05-24T12:02:26Z</time>
      </trkpt>
      <trkpt lat="45.8953" lon="3.88636">
        <ele>596.15</ele>
        <time>2015-05-24T12:02:40Z</time>
      </trkpt>
      <trkpt lat="45.89521" lon="3.88629">
        <ele>595.67</ele>
        <time>2015-05-24T12:02:55Z</time>
      </trkpt>
      <trkpt lat="45.8952" lon="3.88628">
        <ele>598.08</ele>
        <time>2015-05-24T12:03:14Z</time>
      </trkpt>
      <trkpt lat="45.89519" lon="3.88628">
        <ele>599.04</ele>
        <time>2015-05-24T12:03:30Z</time>
      </trkpt>
      <trkpt lat="45.89519" lon="3.8863">
        <ele>599.52</ele>
        <time>2015-05-24T12:03:49Z</time>
      </trkpt>
      <trkpt lat="45.89519" lon="3.88632">
        <ele>598.08</ele>
        <time>2015-05-24T12:04:08Z</time>
      </trkpt>
      <trkpt lat="45.89513" lon="3.88635">
        <ele>600</ele>
        <time>2015-05-24T12:04:29Z</time>
      </trkpt>
      <trkpt lat="45.89507" lon="3.88635">
        <ele>602.4</ele>
        <time>2015-05-24T12:04:55Z</time>
      </trkpt>
      <trkpt lat="45.89507" lon="3.88638">
        <ele>602.4</ele>
        <time>2015-05-24T12:05:19Z</time>
      </trkpt>
      <trkpt lat="45.895" lon="3.88638">
        <ele>601.92</ele>
        <time>2015-05-24T12:05:32Z</time>
      </trkpt>
      <trkpt lat="45.89498" lon="3.8864">
        <ele>601.92</ele>
        <time>2015-05-24T12:05:33Z</time>
      </trkpt>
      <trkpt lat="45.89475" lon="3.88657">
        <ele>600.96</ele>
        <time>2015-05-24T12:05:50Z</time>
      </trkpt>
      <trkpt lat="45.89454" lon="3.8868">
        <ele>599.52</ele>
        <time>2015-05-24T12:06:09Z</time>
      </trkpt>
      <trkpt lat="45.89442" lon="3.88715">
        <ele>597.6</ele>
        <time>2015-05-24T12:06:30Z</time>
      </trkpt>
      <trkpt lat="45.89429" lon="3.88738">
        <ele>599.52</ele>
        <time>2015-05-24T12:06:44Z</time>
      </trkpt>
      <trkpt lat="45.8941" lon="3.88765">
        <ele>599.04</ele>
        <time>2015-05-24T12:07:01Z</time>
      </trkpt>
      <trkpt lat="45.89382" lon="3.88792">
        <ele>598.08</ele>
        <time>2015-05-24T12:07:22Z</time>
      </trkpt>
      <trkpt lat="45.89333" lon="3.88824">
        <ele>596.15</ele>
        <time>2015-05-24T12:07:40Z</time>
      </trkpt>
      <trkpt lat="45.89307" lon="3.88843">
        <ele>597.6</ele>
        <time>2015-05-24T12:07:55Z</time>
      </trkpt>
      <trkpt lat="45.89291" lon="3.88858">
        <ele>597.6</ele>
        <time>2015-05-24T12:08:13Z</time>
      </trkpt>
      <trkpt lat="45.89274" lon="3.88868">
        <ele>595.19</ele>
        <time>2015-05-24T12:08:30Z</time>
      </trkpt>
      <trkpt lat="45.89246" lon="3.88873">
        <ele>595.19</ele>
        <time>2015-05-24T12:08:49Z</time>
      </trkpt>
      <trkpt lat="45.89222" lon="3.8888">
        <ele>598.56</ele>
        <time>2015-05-24T12:09:06Z</time>
      </trkpt>
      <trkpt lat="45.89189" lon="3.8888">
        <ele>601.44</ele>
        <time>2015-05-24T12:09:22Z</time>
      </trkpt>
      <trkpt lat="45.89155" lon="3.88895">
        <ele>602.4</ele>
        <time>2015-05-24T12:09:35Z</time>
      </trkpt>
      <trkpt lat="45.89131" lon="3.88907">
        <ele>605.29</ele>
        <time>2015-05-24T12:09:49Z</time>
      </trkpt>
      <trkpt lat="45.89102" lon="3.88927">
        <ele>606.25</ele>
        <time>2015-05-24T12:10:08Z</time>
      </trkpt>
      <trkpt lat="45.89082" lon="3.88939">
        <ele>603.85</ele>
        <time>2015-05-24T12:10:25Z</time>
      </trkpt>
      <trkpt lat="45.89063" lon="3.88947">
        <ele>600.96</ele>
        <time>2015-05-24T12:10:42Z</time>
      </trkpt>
      <trkpt lat="45.89039" lon="3.8895">
        <ele>597.12</ele>
        <time>2015-05-24T12:10:59Z</time>
      </trkpt>
      <trkpt lat="45.89027" lon="3.88965">
        <ele>596.15</ele>
        <time>2015-05-24T12:11:13Z</time>
      </trkpt>
      <trkpt lat="45.89025" lon="3.88966">
        <ele>596.64</ele>
        <time>2015-05-24T12:11:14Z</time>
      </trkpt>
      <trkpt lat="45.89024" lon="3.88968">
        <ele>596.64</ele>
        <time>2015-05-24T12:11:15Z</time>
      </trkpt>
      <trkpt lat="45.89012" lon="3.88997">
        <ele>599.04</ele>
        <time>2015-05-24T12:11:32Z</time>
      </trkpt>
      <trkpt lat="45.88992" lon="3.89027">
        <ele>601.92</ele>
        <time>2015-05-24T12:11:50Z</time>
      </trkpt>
      <trkpt lat="45.88972" lon="3.89043">
        <ele>600.48</ele>
        <time>2015-05-24T12:12:07Z</time>
      </trkpt>
      <trkpt lat="45.8895" lon="3.89052">
        <ele>603.36</ele>
        <time>2015-05-24T12:12:24Z</time>
      </trkpt>
      <trkpt lat="45.88929" lon="3.8905">
        <ele>604.81</ele>
        <time>2015-05-24T12:12:41Z</time>
      </trkpt>
      <trkpt lat="45.88908" lon="3.89044">
        <ele>605.29</ele>
        <time>2015-05-24T12:12:58Z</time>
      </trkpt>
      <trkpt lat="45.88881" lon="3.89046">
        <ele>603.85</ele>
        <time>2015-05-24T12:13:18Z</time>
      </trkpt>
      <trkpt lat="45.88858" lon="3.89058">
        <ele>605.29</ele>
        <time>2015-05-24T12:13:37Z</time>
      </trkpt>
      <trkpt lat="45.88836" lon="3.89074">
        <ele>607.69</ele>
        <time>2015-05-24T12:13:56Z</time>
      </trkpt>
      <trkpt lat="45.88814" lon="3.89091">
        <ele>608.17</ele>
        <time>2015-05-24T12:14:09Z</time>
      </trkpt>
      <trkpt lat="45.88795" lon="3.89109">
        <ele>608.17</ele>
        <time>2015-05-24T12:14:25Z</time>
      </trkpt>
      <trkpt lat="45.88778" lon="3.89122">
        <ele>607.21</ele>
        <time>2015-05-24T12:14:39Z</time>
      </trkpt>
      <trkpt lat="45.88762" lon="3.89139">
        <ele>606.25</ele>
        <time>2015-05-24T12:14:56Z</time>
      </trkpt>
      <trkpt lat="45.88746" lon="3.89153">
        <ele>603.85</ele>
        <time>2015-05-24T12:15:15Z</time>
      </trkpt>
      <trkpt lat="45.88726" lon="3.89167">
        <ele>600.96</ele>
        <time>2015-05-24T12:15:32Z</time>
      </trkpt>
      <trkpt lat="45.88702" lon="3.89175">
        <ele>595.19</ele>
        <time>2015-05-24T12:15:51Z</time>
      </trkpt>
      <trkpt lat="45.88678" lon="3.89174">
        <ele>591.83</ele>
        <time>2015-05-24T12:16:10Z</time>
      </trkpt>
      <trkpt lat="45.88659" lon="3.89171">
        <ele>588.95</ele>
        <time>2015-05-24T12:16:28Z</time>
      </trkpt>
      <trkpt lat="45.88632" lon="3.89175">
        <ele>586.54</ele>
        <time>2015-05-24T12:16:48Z</time>
      </trkpt>
      <trkpt lat="45.88606" lon="3.89168">
        <ele>585.58</ele>
        <time>2015-05-24T12:17:08Z</time>
      </trkpt>
      <trkpt lat="45.88585" lon="3.89153">
        <ele>580.29</ele>
        <time>2015-05-24T12:17:28Z</time>
      </trkpt>
      <trkpt lat="45.88575" lon="3.89145">
        <ele>578.37</ele>
        <time>2015-05-24T12:17:38Z</time>
      </trkpt>
      <trkpt lat="45.88574" lon="3.89146">
        <ele>577.89</ele>
        <time>2015-05-24T12:17:39Z</time>
      </trkpt>
      <trkpt lat="45.88573" lon="3.89147">
        <ele>577.89</ele>
        <time>2015-05-24T12:17:40Z</time>
      </trkpt>
      <trkpt lat="45.88573" lon="3.89149">
        <ele>577.89</ele>
        <time>2015-05-24T12:17:41Z</time>
      </trkpt>
      <trkpt lat="45.88572" lon="3.89151">
        <ele>577.89</ele>
        <time>2015-05-24T12:17:42Z</time>
      </trkpt>
      <trkpt lat="45.88572" lon="3.89153">
        <ele>577.41</ele>
        <time>2015-05-24T12:17:43Z</time>
      </trkpt>
      <trkpt lat="45.88572" lon="3.89155">
        <ele>577.41</ele>
        <time>2015-05-24T12:17:44Z</time>
      </trkpt>
      <trkpt lat="45.88572" lon="3.89157">
        <ele>577.41</ele>
        <time>2015-05-24T12:17:45Z</time>
      </trkpt>
      <trkpt lat="45.8858" lon="3.89203">
        <ele>575.01</ele>
        <time>2015-05-24T12:18:08Z</time>
      </trkpt>
      <trkpt lat="45.88597" lon="3.89241">
        <ele>574.53</ele>
        <time>2015-05-24T12:18:30Z</time>
      </trkpt>
      <trkpt lat="45.88615" lon="3.89271">
        <ele>574.04</ele>
        <time>2015-05-24T12:18:50Z</time>
      </trkpt>
      <trkpt lat="45.88634" lon="3.89307">
        <ele>573.08</ele>
        <time>2015-05-24T12:19:15Z</time>
      </trkpt>
      <trkpt lat="45.8864" lon="3.89321">
        <ele>572.12</ele>
        <time>2015-05-24T12:19:31Z</time>
      </trkpt>
      <trkpt lat="45.88646" lon="3.89355">
        <ele>569.72</ele>
        <time>2015-05-24T12:19:52Z</time>
      </trkpt>
      <trkpt lat="45.88647" lon="3.89386">
        <ele>565.87</ele>
        <time>2015-05-24T12:20:10Z</time>
      </trkpt>
      <trkpt lat="45.88642" lon="3.89418">
        <ele>565.87</ele>
        <time>2015-05-24T12:20:29Z</time>
      </trkpt>
      <trkpt lat="45.88631" lon="3.89454">
        <ele>567.32</ele>
        <time>2015-05-24T12:20:50Z</time>
      </trkpt>
      <trkpt lat="45.88613" lon="3.89491">
        <ele>569.72</ele>
        <time>2015-05-24T12:21:13Z</time>
      </trkpt>
      <trkpt lat="45.8859" lon="3.8951">
        <ele>568.76</ele>
        <time>2015-05-24T12:21:34Z</time>
      </trkpt>
      <trkpt lat="45.88567" lon="3.89522">
        <ele>568.28</ele>
        <time>2015-05-24T12:21:52Z</time>
      </trkpt>
      <trkpt lat="45.88543" lon="3.89529">
        <ele>567.32</ele>
        <time>2015-05-24T12:22:11Z</time>
      </trkpt>
      <trkpt lat="45.88525" lon="3.89527">
        <ele>569.24</ele>
        <time>2015-05-24T12:22:34Z</time>
      </trkpt>
      <trkpt lat="45.88507" lon="3.89525">
        <ele>571.64</ele>
        <time>2015-05-24T12:23:01Z</time>
      </trkpt>
      <trkpt lat="45.88483" lon="3.8952">
        <ele>569.72</ele>
        <time>2015-05-24T12:23:17Z</time>
      </trkpt>
      <trkpt lat="45.88461" lon="3.89513">
        <ele>572.6</ele>
        <time>2015-05-24T12:23:38Z</time>
      </trkpt>
      <trkpt lat="45.88437" lon="3.8951">
        <ele>576.45</ele>
        <time>2015-05-24T12:23:58Z</time>
      </trkpt>
      <trkpt lat="45.88392" lon="3.89502">
        <ele>570.68</ele>
        <time>2015-05-24T12:24:21Z</time>
      </trkpt>
      <trkpt lat="45.88373" lon="3.8948">
        <ele>567.8</ele>
        <time>2015-05-24T12:24:40Z</time>
      </trkpt>
      <trkpt lat="45.88349" lon="3.89464">
        <ele>570.68</ele>
        <time>2015-05-24T12:25:02Z</time>
      </trkpt>
      <trkpt lat="45.88306" lon="3.89457">
        <ele>565.39</ele>
        <time>2015-05-24T12:25:21Z</time>
      </trkpt>
      <trkpt lat="45.88277" lon="3.89454">
        <ele>562.03</ele>
        <time>2015-05-24T12:25:39Z</time>
      </trkpt>
      <trkpt lat="45.88279" lon="3.89456">
        <ele>559.14</ele>
        <time>2015-05-24T12:25:45Z</time>
      </trkpt>
      <trkpt lat="45.8828" lon="3.89458">
        <ele>559.14</ele>
        <time>2015-05-24T12:25:46Z</time>
      </trkpt>
      <trkpt lat="45.8828" lon="3.8946">
        <ele>559.14</ele>
        <time>2015-05-24T12:25:47Z</time>
      </trkpt>
      <trkpt lat="45.8828" lon="3.89463">
        <ele>559.14</ele>
        <time>2015-05-24T12:25:48Z</time>
      </trkpt>
      <trkpt lat="45.8828" lon="3.89465">
        <ele>559.14</ele>
        <time>2015-05-24T12:25:49Z</time>
      </trkpt>
      <trkpt lat="45.88276" lon="3.89488">
        <ele>560.59</ele>
        <time>2015-05-24T12:26:08Z</time>
      </trkpt>
      <trkpt lat="45.88255" lon="3.89517">
        <ele>563.95</ele>
        <time>2015-05-24T12:26:30Z</time>
      </trkpt>
      <trkpt lat="45.88252" lon="3.8953">
        <ele>563.95</ele>
        <time>2015-05-24T12:26:38Z</time>
      </trkpt>
      <trkpt lat="45.88252" lon="3.89532">
        <ele>563.95</ele>
        <time>2015-05-24T12:26:39Z</time>
      </trkpt>
      <trkpt lat="45.88237" lon="3.89561">
        <ele>568.76</ele>
        <time>2015-05-24T12:26:57Z</time>
      </trkpt>
      <trkpt lat="45.8823" lon="3.89567">
        <ele>570.2</ele>
        <time>2015-05-24T12:27:02Z</time>
      </trkpt>
      <trkpt lat="45.88196" lon="3.89594">
        <ele>571.64</ele>
        <time>2015-05-24T12:27:28Z</time>
      </trkpt>
      <trkpt lat="45.88176" lon="3.89619">
        <ele>577.89</ele>
        <time>2015-05-24T12:27:52Z</time>
      </trkpt>
      <trkpt lat="45.88154" lon="3.8962">
        <ele>579.33</ele>
        <time>2015-05-24T12:28:09Z</time>
      </trkpt>
      <trkpt lat="45.88124" lon="3.89612">
        <ele>575.49</ele>
        <time>2015-05-24T12:28:22Z</time>
      </trkpt>
      <trkpt lat="45.88104" lon="3.89624">
        <ele>573.56</ele>
        <time>2015-05-24T12:28:37Z</time>
      </trkpt>
      <trkpt lat="45.88072" lon="3.89656">
        <ele>574.53</ele>
        <time>2015-05-24T12:28:51Z</time>
      </trkpt>
      <trkpt lat="45.88039" lon="3.89691">
        <ele>578.85</ele>
        <time>2015-05-24T12:29:08Z</time>
      </trkpt>
      <trkpt lat="45.88018" lon="3.89707">
        <ele>580.29</ele>
        <time>2015-05-24T12:29:23Z</time>
      </trkpt>
      <trkpt lat="45.88" lon="3.89726">
        <ele>584.14</ele>
        <time>2015-05-24T12:29:42Z</time>
      </trkpt>
      <trkpt lat="45.87987" lon="3.89737">
        <ele>584.62</ele>
        <time>2015-05-24T12:30:00Z</time>
      </trkpt>
      <trkpt lat="45.87971" lon="3.8975">
        <ele>587.5</ele>
        <time>2015-05-24T12:30:20Z</time>
      </trkpt>
      <trkpt lat="45.87943" lon="3.89775">
        <ele>583.66</ele>
        <time>2015-05-24T12:30:34Z</time>
      </trkpt>
      <trkpt lat="45.87936" lon="3.89803">
        <ele>581.73</ele>
        <time>2015-05-24T12:30:52Z</time>
      </trkpt>
      <trkpt lat="45.87923" lon="3.89817">
        <ele>586.06</ele>
        <time>2015-05-24T12:31:09Z</time>
      </trkpt>
      <trkpt lat="45.87905" lon="3.89846">
        <ele>589.91</ele>
        <time>2015-05-24T12:31:27Z</time>
      </trkpt>
      <trkpt lat="45.87885" lon="3.89886">
        <ele>587.98</ele>
        <time>2015-05-24T12:31:49Z</time>
      </trkpt>
      <trkpt lat="45.87876" lon="3.89911">
        <ele>591.35</ele>
        <time>2015-05-24T12:32:10Z</time>
      </trkpt>
      <trkpt lat="45.87866" lon="3.89948">
        <ele>593.75</ele>
        <time>2015-05-24T12:32:32Z</time>
      </trkpt>
      <trkpt lat="45.87858" lon="3.89983">
        <ele>593.75</ele>
        <time>2015-05-24T12:32:50Z</time>
      </trkpt>
      <trkpt lat="45.87854" lon="3.89998">
        <ele>594.23</ele>
        <time>2015-05-24T12:32:57Z</time>
      </trkpt>
      <trkpt lat="45.87842" lon="3.90072">
        <ele>592.79</ele>
        <time>2015-05-24T12:33:13Z</time>
      </trkpt>
      <trkpt lat="45.87831" lon="3.90108">
        <ele>591.83</ele>
        <time>2015-05-24T12:33:21Z</time>
      </trkpt>
      <trkpt lat="45.87814" lon="3.90145">
        <ele>583.18</ele>
        <time>2015-05-24T12:33:40Z</time>
      </trkpt>
      <trkpt lat="45.87799" lon="3.9018">
        <ele>579.81</ele>
        <time>2015-05-24T12:34:01Z</time>
      </trkpt>
      <trkpt lat="45.87781" lon="3.90208">
        <ele>580.29</ele>
        <time>2015-05-24T12:34:18Z</time>
      </trkpt>
      <trkpt lat="45.87765" lon="3.90242">
        <ele>575.01</ele>
        <time>2015-05-24T12:34:39Z</time>
      </trkpt>
      <trkpt lat="45.87762" lon="3.90252">
        <ele>575.01</ele>
        <time>2015-05-24T12:34:49Z</time>
      </trkpt>
      <trkpt lat="45.87738" lon="3.90286">
        <ele>573.08</ele>
        <time>2015-05-24T12:35:05Z</time>
      </trkpt>
      <trkpt lat="45.87734" lon="3.90308">
        <ele>572.12</ele>
        <time>2015-05-24T12:35:21Z</time>
      </trkpt>
      <trkpt lat="45.8772" lon="3.90333">
        <ele>572.12</ele>
        <time>2015-05-24T12:35:38Z</time>
      </trkpt>
      <trkpt lat="45.87686" lon="3.90402">
        <ele>571.16</ele>
        <time>2015-05-24T12:35:51Z</time>
      </trkpt>
      <trkpt lat="45.87664" lon="3.90446">
        <ele>565.87</ele>
        <time>2015-05-24T12:36:02Z</time>
      </trkpt>
      <trkpt lat="45.87656" lon="3.90478">
        <ele>566.35</ele>
        <time>2015-05-24T12:36:23Z</time>
      </trkpt>
      <trkpt lat="45.87646" lon="3.90514">
        <ele>569.72</ele>
        <time>2015-05-24T12:36:44Z</time>
      </trkpt>
      <trkpt lat="45.87643" lon="3.90527">
        <ele>569.72</ele>
        <time>2015-05-24T12:36:50Z</time>
      </trkpt>
      <trkpt lat="45.87635" lon="3.90579">
        <ele>566.83</ele>
        <time>2015-05-24T12:37:13Z</time>
      </trkpt>
      <trkpt lat="45.87627" lon="3.90612">
        <ele>566.35</ele>
        <time>2015-05-24T12:37:33Z</time>
      </trkpt>
      <trkpt lat="45.87618" lon="3.9065">
        <ele>566.35</ele>
        <time>2015-05-24T12:37:50Z</time>
      </trkpt>
      <trkpt lat="45.87614" lon="3.90683">
        <ele>565.87</ele>
        <time>2015-05-24T12:38:07Z</time>
      </trkpt>
      <trkpt lat="45.87613" lon="3.90686">
        <ele>566.35</ele>
        <time>2015-05-24T12:38:09Z</time>
      </trkpt>
      <trkpt lat="45.87612" lon="3.90722">
        <ele>566.83</ele>
        <time>2015-05-24T12:38:29Z</time>
      </trkpt>
      <trkpt lat="45.87612" lon="3.90727">
        <ele>566.35</ele>
        <time>2015-05-24T12:38:31Z</time>
      </trkpt>
      <trkpt lat="45.87609" lon="3.90767">
        <ele>564.43</ele>
        <time>2015-05-24T12:38:52Z</time>
      </trkpt>
      <trkpt lat="45.87612" lon="3.908">
        <ele>560.59</ele>
        <time>2015-05-24T12:39:13Z</time>
      </trkpt>
      <trkpt lat="45.87614" lon="3.90818">
        <ele>559.14</ele>
        <time>2015-05-24T12:39:31Z</time>
      </trkpt>
      <trkpt lat="45.876" lon="3.90835">
        <ele>552.9</ele>
        <time>2015-05-24T12:39:51Z</time>
      </trkpt>
      <trkpt lat="45.8759" lon="3.90837">
        <ele>550.49</ele>
        <time>2015-05-24T12:40:08Z</time>
      </trkpt>
      <trkpt lat="45.87571" lon="3.90836">
        <ele>545.69</ele>
        <time>2015-05-24T12:40:26Z</time>
      </trkpt>
      <trkpt lat="45.87562" lon="3.90835">
        <ele>543.76</ele>
        <time>2015-05-24T12:40:35Z</time>
      </trkpt>
      <trkpt lat="45.87546" lon="3.90831">
        <ele>538.96</ele>
        <time>2015-05-24T12:40:48Z</time>
      </trkpt>
      <trkpt lat="45.87533" lon="3.90826">
        <ele>534.63</ele>
        <time>2015-05-24T12:41:02Z</time>
      </trkpt>
      <trkpt lat="45.87516" lon="3.90816">
        <ele>531.75</ele>
        <time>2015-05-24T12:41:18Z</time>
      </trkpt>
      <trkpt lat="45.87515" lon="3.90814">
        <ele>531.27</ele>
        <time>2015-05-24T12:41:20Z</time>
      </trkpt>
      <trkpt lat="45.875" lon="3.90795">
        <ele>527.42</ele>
        <time>2015-05-24T12:41:37Z</time>
      </trkpt>
      <trkpt lat="45.87485" lon="3.90785">
        <ele>524.06</ele>
        <time>2015-05-24T12:41:49Z</time>
      </trkpt>
      <trkpt lat="45.87452" lon="3.90771">
        <ele>520.21</ele>
        <time>2015-05-24T12:42:11Z</time>
      </trkpt>
      <trkpt lat="45.87433" lon="3.9074">
        <ele>522.13</ele>
        <time>2015-05-24T12:42:29Z</time>
      </trkpt>
      <trkpt lat="45.87427" lon="3.90702">
        <ele>522.61</ele>
        <time>2015-05-24T12:42:48Z</time>
      </trkpt>
      <trkpt lat="45.8743" lon="3.9066">
        <ele>523.09</ele>
        <time>2015-05-24T12:43:08Z</time>
      </trkpt>
      <trkpt lat="45.87427" lon="3.90623">
        <ele>525.98</ele>
        <time>2015-05-24T12:43:23Z</time>
      </trkpt>
      <trkpt lat="45.87407" lon="3.90603">
        <ele>531.27</ele>
        <time>2015-05-24T12:43:41Z</time>
      </trkpt>
      <trkpt lat="45.87385" lon="3.90598">
        <ele>535.11</ele>
        <time>2015-05-24T12:43:58Z</time>
      </trkpt>
      <trkpt lat="45.87343" lon="3.9059">
        <ele>535.59</ele>
        <time>2015-05-24T12:44:21Z</time>
      </trkpt>
      <trkpt lat="45.87338" lon="3.90594">
        <ele>535.59</ele>
        <time>2015-05-24T12:44:26Z</time>
      </trkpt>
      <trkpt lat="45.87337" lon="3.90596">
        <ele>535.59</ele>
        <time>2015-05-24T12:44:27Z</time>
      </trkpt>
      <trkpt lat="45.87336" lon="3.90597">
        <ele>536.07</ele>
        <time>2015-05-24T12:44:28Z</time>
      </trkpt>
      <trkpt lat="45.87328" lon="3.90627">
        <ele>536.07</ele>
        <time>2015-05-24T12:44:46Z</time>
      </trkpt>
      <trkpt lat="45.87328" lon="3.90669">
        <ele>534.63</ele>
        <time>2015-05-24T12:45:06Z</time>
      </trkpt>
      <trkpt lat="45.87317" lon="3.90714">
        <ele>534.63</ele>
        <time>2015-05-24T12:45:29Z</time>
      </trkpt>
      <trkpt lat="45.87307" lon="3.90762">
        <ele>536.55</ele>
        <time>2015-05-24T12:45:52Z</time>
      </trkpt>
      <trkpt lat="45.873" lon="3.90804">
        <ele>537.51</ele>
        <time>2015-05-24T12:46:12Z</time>
      </trkpt>
      <trkpt lat="45.87296" lon="3.90838">
        <ele>539.44</ele>
        <time>2015-05-24T12:46:32Z</time>
      </trkpt>
      <trkpt lat="45.87291" lon="3.90876">
        <ele>541.84</ele>
        <time>2015-05-24T12:46:52Z</time>
      </trkpt>
      <trkpt lat="45.87286" lon="3.90908">
        <ele>546.65</ele>
        <time>2015-05-24T12:47:10Z</time>
      </trkpt>
      <trkpt lat="45.87287" lon="3.90968">
        <ele>547.61</ele>
        <time>2015-05-24T12:47:30Z</time>
      </trkpt>
      <trkpt lat="45.87292" lon="3.91028">
        <ele>540.88</ele>
        <time>2015-05-24T12:47:49Z</time>
      </trkpt>
      <trkpt lat="45.87283" lon="3.91059">
        <ele>537.03</ele>
        <time>2015-05-24T12:48:05Z</time>
      </trkpt>
      <trkpt lat="45.87284" lon="3.91062">
        <ele>536.55</ele>
        <time>2015-05-24T12:48:06Z</time>
      </trkpt>
      <trkpt lat="45.87282" lon="3.91113">
        <ele>529.82</ele>
        <time>2015-05-24T12:48:26Z</time>
      </trkpt>
      <trkpt lat="45.87283" lon="3.91145">
        <ele>529.34</ele>
        <time>2015-05-24T12:48:41Z</time>
      </trkpt>
      <trkpt lat="45.87285" lon="3.91187">
        <ele>527.42</ele>
        <time>2015-05-24T12:48:58Z</time>
      </trkpt>
      <trkpt lat="45.87276" lon="3.91215">
        <ele>529.82</ele>
        <time>2015-05-24T12:49:13Z</time>
      </trkpt>
      <trkpt lat="45.87267" lon="3.91234">
        <ele>535.11</ele>
        <time>2015-05-24T12:49:33Z</time>
      </trkpt>
      <trkpt lat="45.87268" lon="3.91243">
        <ele>534.63</ele>
        <time>2015-05-24T12:49:36Z</time>
      </trkpt>
      <trkpt lat="45.87266" lon="3.91296">
        <ele>539.44</ele>
        <time>2015-05-24T12:49:58Z</time>
      </trkpt>
      <trkpt lat="45.87265" lon="3.91298">
        <ele>539.92</ele>
        <time>2015-05-24T12:49:59Z</time>
      </trkpt>
      <trkpt lat="45.87263" lon="3.91302">
        <ele>540.88</ele>
        <time>2015-05-24T12:50:00Z</time>
      </trkpt>
      <trkpt lat="45.87262" lon="3.91304">
        <ele>541.84</ele>
        <time>2015-05-24T12:50:01Z</time>
      </trkpt>
      <trkpt lat="45.87248" lon="3.91313">
        <ele>542.8</ele>
        <time>2015-05-24T12:50:10Z</time>
      </trkpt>
      <trkpt lat="45.87226" lon="3.9133">
        <ele>545.2</ele>
        <time>2015-05-24T12:50:33Z</time>
      </trkpt>
      <trkpt lat="45.87216" lon="3.91355">
        <ele>549.05</ele>
        <time>2015-05-24T12:50:53Z</time>
      </trkpt>
      <trkpt lat="45.87205" lon="3.9138">
        <ele>549.05</ele>
        <time>2015-05-24T12:51:13Z</time>
      </trkpt>
      <trkpt lat="45.87174" lon="3.91346">
        <ele>557.22</ele>
        <time>2015-05-24T12:51:32Z</time>
      </trkpt>
      <trkpt lat="45.87169" lon="3.91319">
        <ele>561.07</ele>
        <time>2015-05-24T12:51:49Z</time>
      </trkpt>
      <trkpt lat="45.87164" lon="3.91302">
        <ele>563.47</ele>
        <time>2015-05-24T12:52:08Z</time>
      </trkpt>
      <trkpt lat="45.87152" lon="3.91289">
        <ele>564.91</ele>
        <time>2015-05-24T12:52:23Z</time>
      </trkpt>
      <trkpt lat="45.87136" lon="3.91278">
        <ele>563.47</ele>
        <time>2015-05-24T12:52:36Z</time>
      </trkpt>
      <trkpt lat="45.87125" lon="3.91284">
        <ele>565.87</ele>
        <time>2015-05-24T12:52:47Z</time>
      </trkpt>
      <trkpt lat="45.87124" lon="3.91285">
        <ele>566.35</ele>
        <time>2015-05-24T12:52:48Z</time>
      </trkpt>
      <trkpt lat="45.87105" lon="3.91284">
        <ele>570.68</ele>
        <time>2015-05-24T12:53:05Z</time>
      </trkpt>
      <trkpt lat="45.87082" lon="3.91282">
        <ele>570.68</ele>
        <time>2015-05-24T12:53:25Z</time>
      </trkpt>
      <trkpt lat="45.87065" lon="3.91292">
        <ele>571.16</ele>
        <time>2015-05-24T12:53:43Z</time>
      </trkpt>
      <trkpt lat="45.87057" lon="3.91309">
        <ele>571.64</ele>
        <time>2015-05-24T12:53:58Z</time>
      </trkpt>
      <trkpt lat="45.87053" lon="3.91322">
        <ele>571.16</ele>
        <time>2015-05-24T12:54:06Z</time>
      </trkpt>
      <trkpt lat="45.87052" lon="3.91324">
        <ele>571.64</ele>
        <time>2015-05-24T12:54:07Z</time>
      </trkpt>
      <trkpt lat="45.87049" lon="3.91337">
        <ele>572.12</ele>
        <time>2015-05-24T12:54:15Z</time>
      </trkpt>
      <trkpt lat="45.87048" lon="3.91339">
        <ele>572.6</ele>
        <time>2015-05-24T12:54:16Z</time>
      </trkpt>
      <trkpt lat="45.87047" lon="3.91341">
        <ele>572.6</ele>
        <time>2015-05-24T12:54:17Z</time>
      </trkpt>
      <trkpt lat="45.87046" lon="3.91343">
        <ele>573.08</ele>
        <time>2015-05-24T12:54:18Z</time>
      </trkpt>
      <trkpt lat="45.87046" lon="3.91344">
        <ele>573.08</ele>
        <time>2015-05-24T12:54:19Z</time>
      </trkpt>
      <trkpt lat="45.87032" lon="3.91375">
        <ele>578.37</ele>
        <time>2015-05-24T12:54:36Z</time>
      </trkpt>
      <trkpt lat="45.87012" lon="3.91428">
        <ele>577.89</ele>
        <time>2015-05-24T12:54:50Z</time>
      </trkpt>
      <trkpt lat="45.86978" lon="3.91503">
        <ele>578.37</ele>
        <time>2015-05-24T12:55:04Z</time>
      </trkpt>
      <trkpt lat="45.86968" lon="3.91528">
        <ele>579.81</ele>
        <time>2015-05-24T12:55:15Z</time>
      </trkpt>
      <trkpt lat="45.86951" lon="3.91566">
        <ele>582.22</ele>
        <time>2015-05-24T12:55:37Z</time>
      </trkpt>
      <trkpt lat="45.86932" lon="3.91604">
        <ele>583.18</ele>
        <time>2015-05-24T12:55:55Z</time>
      </trkpt>
      <trkpt lat="45.86924" lon="3.91626">
        <ele>585.1</ele>
        <time>2015-05-24T12:56:08Z</time>
      </trkpt>
      <trkpt lat="45.86913" lon="3.91649">
        <ele>586.54</ele>
        <time>2015-05-24T12:56:19Z</time>
      </trkpt>
      <trkpt lat="45.86895" lon="3.91688">
        <ele>589.43</ele>
        <time>2015-05-24T12:56:36Z</time>
      </trkpt>
      <trkpt lat="45.8688" lon="3.9173">
        <ele>590.87</ele>
        <time>2015-05-24T12:57:00Z</time>
      </trkpt>
      <trkpt lat="45.86872" lon="3.9178">
        <ele>593.27</ele>
        <time>2015-05-24T12:57:26Z</time>
      </trkpt>
      <trkpt lat="45.86865" lon="3.91813">
        <ele>593.75</ele>
        <time>2015-05-24T12:57:45Z</time>
      </trkpt>
      <trkpt lat="45.86858" lon="3.91842">
        <ele>594.71</ele>
        <time>2015-05-24T12:58:02Z</time>
      </trkpt>
      <trkpt lat="45.86848" lon="3.91878">
        <ele>594.71</ele>
        <time>2015-05-24T12:58:22Z</time>
      </trkpt>
      <trkpt lat="45.86841" lon="3.91908">
        <ele>594.23</ele>
        <time>2015-05-24T12:58:41Z</time>
      </trkpt>
      <trkpt lat="45.86835" lon="3.91912">
        <ele>593.75</ele>
        <time>2015-05-24T12:58:46Z</time>
      </trkpt>
      <trkpt lat="45.86834" lon="3.91912">
        <ele>593.75</ele>
        <time>2015-05-24T12:58:47Z</time>
      </trkpt>
      <trkpt lat="45.8681" lon="3.91902">
        <ele>591.83</ele>
        <time>2015-05-24T12:59:06Z</time>
      </trkpt>
      <trkpt lat="45.86797" lon="3.91893">
        <ele>591.83</ele>
        <time>2015-05-24T12:59:25Z</time>
      </trkpt>
      <trkpt lat="45.86797" lon="3.91886">
        <ele>590.87</ele>
        <time>2015-05-24T12:59:40Z</time>
      </trkpt>
      <trkpt lat="45.86798" lon="3.91885">
        <ele>587.02</ele>
        <time>2015-05-24T13:00:01Z</time>
      </trkpt>
      <trkpt lat="45.86798" lon="3.91883">
        <ele>587.98</ele>
        <time>2015-05-24T13:00:22Z</time>
      </trkpt>
      <trkpt lat="45.86799" lon="3.91883">
        <ele>591.35</ele>
        <time>2015-05-24T13:00:37Z</time>
      </trkpt>
      <trkpt lat="45.86797" lon="3.91882">
        <ele>593.75</ele>
        <time>2015-05-24T13:00:50Z</time>
      </trkpt>
      <trkpt lat="45.86793" lon="3.9188">
        <ele>594.71</ele>
        <time>2015-05-24T13:01:11Z</time>
      </trkpt>
      <trkpt lat="45.86796" lon="3.91884">
        <ele>592.79</ele>
        <time>2015-05-24T13:01:25Z</time>
      </trkpt>
      <trkpt lat="45.86795" lon="3.91886">
        <ele>592.79</ele>
        <time>2015-05-24T13:01:32Z</time>
      </trkpt>
      <trkpt lat="45.8679" lon="3.9189">
        <ele>591.35</ele>
        <time>2015-05-24T13:01:43Z</time>
      </trkpt>
      <trkpt lat="45.86791" lon="3.91889">
        <ele>591.83</ele>
        <time>2015-05-24T13:01:57Z</time>
      </trkpt>
      <trkpt lat="45.86792" lon="3.91888">
        <ele>591.83</ele>
        <time>2015-05-24T13:01:58Z</time>
      </trkpt>
      <trkpt lat="45.86796" lon="3.91882">
        <ele>588.46</ele>
        <time>2015-05-24T13:02:10Z</time>
      </trkpt>
      <trkpt lat="45.86798" lon="3.9188">
        <ele>589.91</ele>
        <time>2015-05-24T13:02:23Z</time>
      </trkpt>
      <trkpt lat="45.86798" lon="3.91881">
        <ele>593.27</ele>
        <time>2015-05-24T13:02:58Z</time>
      </trkpt>
      <trkpt lat="45.86796" lon="3.91889">
        <ele>593.75</ele>
        <time>2015-05-24T13:03:16Z</time>
      </trkpt>
      <trkpt lat="45.86792" lon="3.91892">
        <ele>596.15</ele>
        <time>2015-05-24T13:03:32Z</time>
      </trkpt>
      <trkpt lat="45.86792" lon="3.91893">
        <ele>599.52</ele>
        <time>2015-05-24T13:03:52Z</time>
      </trkpt>
      <trkpt lat="45.86796" lon="3.91888">
        <ele>599.52</ele>
        <time>2015-05-24T13:04:07Z</time>
      </trkpt>
      <trkpt lat="45.86796" lon="3.91884">
        <ele>595.67</ele>
        <time>2015-05-24T13:04:31Z</time>
      </trkpt>
      <trkpt lat="45.86798" lon="3.91884">
        <ele>592.31</ele>
        <time>2015-05-24T13:04:47Z</time>
      </trkpt>
      <trkpt lat="45.86798" lon="3.91877">
        <ele>593.75</ele>
        <time>2015-05-24T13:05:12Z</time>
      </trkpt>
      <trkpt lat="45.86801" lon="3.91882">
        <ele>597.12</ele>
        <time>2015-05-24T13:05:25Z</time>
      </trkpt>
      <trkpt lat="45.86798" lon="3.91887">
        <ele>595.19</ele>
        <time>2015-05-24T13:05:45Z</time>
      </trkpt>
      <trkpt lat="45.86795" lon="3.91888">
        <ele>594.23</ele>
        <time>2015-05-24T13:06:04Z</time>
      </trkpt>
      <trkpt lat="45.8679" lon="3.91891">
        <ele>591.35</ele>
        <time>2015-05-24T13:06:20Z</time>
      </trkpt>
      <trkpt lat="45.86791" lon="3.91893">
        <ele>590.39</ele>
        <time>2015-05-24T13:06:33Z</time>
      </trkpt>
      <trkpt lat="45.86791" lon="3.91893">
        <ele>590.87</ele>
        <time>2015-05-24T13:06:48Z</time>
      </trkpt>
      <trkpt lat="45.86794" lon="3.91891">
        <ele>591.83</ele>
        <time>2015-05-24T13:07:15Z</time>
      </trkpt>
      <trkpt lat="45.86793" lon="3.91894">
        <ele>592.79</ele>
        <time>2015-05-24T13:07:42Z</time>
      </trkpt>
      <trkpt lat="45.8679" lon="3.91893">
        <ele>597.6</ele>
        <time>2015-05-24T13:08:01Z</time>
      </trkpt>
      <trkpt lat="45.86794" lon="3.91889">
        <ele>600.48</ele>
        <time>2015-05-24T13:08:21Z</time>
      </trkpt>
      <trkpt lat="45.86791" lon="3.91891">
        <ele>599.04</ele>
        <time>2015-05-24T13:08:37Z</time>
      </trkpt>
      <trkpt lat="45.86794" lon="3.91886">
        <ele>595.67</ele>
        <time>2015-05-24T13:08:49Z</time>
      </trkpt>
      <trkpt lat="45.86792" lon="3.91892">
        <ele>592.79</ele>
        <time>2015-05-24T13:09:02Z</time>
      </trkpt>
      <trkpt lat="45.86791" lon="3.91893">
        <ele>590.39</ele>
        <time>2015-05-24T13:09:15Z</time>
      </trkpt>
      <trkpt lat="45.86791" lon="3.9189">
        <ele>590.39</ele>
        <time>2015-05-24T13:09:37Z</time>
      </trkpt>
      <trkpt lat="45.86794" lon="3.91888">
        <ele>589.91</ele>
        <time>2015-05-24T13:09:52Z</time>
      </trkpt>
      <trkpt lat="45.86795" lon="3.9189">
        <ele>591.35</ele>
        <time>2015-05-24T13:10:05Z</time>
      </trkpt>
      <trkpt lat="45.86797" lon="3.91883">
        <ele>592.31</ele>
        <time>2015-05-24T13:10:20Z</time>
      </trkpt>
      <trkpt lat="45.86798" lon="3.91878">
        <ele>592.79</ele>
        <time>2015-05-24T13:10:47Z</time>
      </trkpt>
      <trkpt lat="45.868" lon="3.91887">
        <ele>597.12</ele>
        <time>2015-05-24T13:11:13Z</time>
      </trkpt>
      <trkpt lat="45.86799" lon="3.91891">
        <ele>600.48</ele>
        <time>2015-05-24T13:11:41Z</time>
      </trkpt>
      <trkpt lat="45.86797" lon="3.91892">
        <ele>597.6</ele>
        <time>2015-05-24T13:12:01Z</time>
      </trkpt>
      <trkpt lat="45.86796" lon="3.91893">
        <ele>596.64</ele>
        <time>2015-05-24T13:12:32Z</time>
      </trkpt>
      <trkpt lat="45.86796" lon="3.91893">
        <ele>596.15</ele>
        <time>2015-05-24T13:12:36Z</time>
      </trkpt>
      <trkpt lat="45.86805" lon="3.91897">
        <ele>594.23</ele>
        <time>2015-05-24T13:12:50Z</time>
      </trkpt>
      <trkpt lat="45.86808" lon="3.91898">
        <ele>594.71</ele>
        <time>2015-05-24T13:13:09Z</time>
      </trkpt>
      <trkpt lat="45.86806" lon="3.91896">
        <ele>595.67</ele>
        <time>2015-05-24T13:13:18Z</time>
      </trkpt>
      <trkpt lat="45.86801" lon="3.91896">
        <ele>594.71</ele>
        <time>2015-05-24T13:13:22Z</time>
      </trkpt>
      <trkpt lat="45.86795" lon="3.91891">
        <ele>591.35</ele>
        <time>2015-05-24T13:13:40Z</time>
      </trkpt>
      <trkpt lat="45.86794" lon="3.91888">
        <ele>591.83</ele>
        <time>2015-05-24T13:14:10Z</time>
      </trkpt>
      <trkpt lat="45.86792" lon="3.91872">
        <ele>591.35</ele>
        <time>2015-05-24T13:14:30Z</time>
      </trkpt>
      <trkpt lat="45.86789" lon="3.91889">
        <ele>592.79</ele>
        <time>2015-05-24T13:14:46Z</time>
      </trkpt>
      <trkpt lat="45.86766" lon="3.91886">
        <ele>593.27</ele>
        <time>2015-05-24T13:15:03Z</time>
      </trkpt>
      <trkpt lat="45.86751" lon="3.91883">
        <ele>592.79</ele>
        <time>2015-05-24T13:15:19Z</time>
      </trkpt>
      <trkpt lat="45.8674" lon="3.91877">
        <ele>590.87</ele>
        <time>2015-05-24T13:15:34Z</time>
      </trkpt>
      <trkpt lat="45.86733" lon="3.91874">
        <ele>590.39</ele>
        <time>2015-05-24T13:15:46Z</time>
      </trkpt>
      <trkpt lat="45.8673" lon="3.91878">
        <ele>591.35</ele>
        <time>2015-05-24T13:16:20Z</time>
      </trkpt>
      <trkpt lat="45.86732" lon="3.91877">
        <ele>593.27</ele>
        <time>2015-05-24T13:16:48Z</time>
      </trkpt>
      <trkpt lat="45.86733" lon="3.91879">
        <ele>594.23</ele>
        <time>2015-05-24T13:17:24Z</time>
      </trkpt>
      <trkpt lat="45.86729" lon="3.91871">
        <ele>595.67</ele>
        <time>2015-05-24T13:17:48Z</time>
      </trkpt>
      <trkpt lat="45.86723" lon="3.91859">
        <ele>595.19</ele>
        <time>2015-05-24T13:17:57Z</time>
      </trkpt>
      <trkpt lat="45.86709" lon="3.91827">
        <ele>591.83</ele>
        <time>2015-05-24T13:18:20Z</time>
      </trkpt>
      <trkpt lat="45.86699" lon="3.91829">
        <ele>591.83</ele>
        <time>2015-05-24T13:18:35Z</time>
      </trkpt>
      <trkpt lat="45.86699" lon="3.91831">
        <ele>590.87</ele>
        <time>2015-05-24T13:18:59Z</time>
      </trkpt>
      <trkpt lat="45.86701" lon="3.91829">
        <ele>592.31</ele>
        <time>2015-05-24T13:19:26Z</time>
      </trkpt>
      <trkpt lat="45.86702" lon="3.91831">
        <ele>590.39</ele>
        <time>2015-05-24T13:19:52Z</time>
      </trkpt>
      <trkpt lat="45.86699" lon="3.91834">
        <ele>591.35</ele>
        <time>2015-05-24T13:20:15Z</time>
      </trkpt>
      <trkpt lat="45.86699" lon="3.91829">
        <ele>592.31</ele>
        <time>2015-05-24T13:20:35Z</time>
      </trkpt>
      <trkpt lat="45.86702" lon="3.91823">
        <ele>594.71</ele>
        <time>2015-05-24T13:20:55Z</time>
      </trkpt>
      <trkpt lat="45.86705" lon="3.91824">
        <ele>593.75</ele>
        <time>2015-05-24T13:21:16Z</time>
      </trkpt>
      <trkpt lat="45.8671" lon="3.91827">
        <ele>592.79</ele>
        <time>2015-05-24T13:21:20Z</time>
      </trkpt>
      <trkpt lat="45.8672" lon="3.91844">
        <ele>591.35</ele>
        <time>2015-05-24T13:21:37Z</time>
      </trkpt>
      <trkpt lat="45.86729" lon="3.91864">
        <ele>589.43</ele>
        <time>2015-05-24T13:21:54Z</time>
      </trkpt>
      <trkpt lat="45.86738" lon="3.91878">
        <ele>587.98</ele>
        <time>2015-05-24T13:22:10Z</time>
      </trkpt>
      <trkpt lat="45.86752" lon="3.91884">
        <ele>585.58</ele>
        <time>2015-05-24T13:22:26Z</time>
      </trkpt>
      <trkpt lat="45.86768" lon="3.91887">
        <ele>584.62</ele>
        <time>2015-05-24T13:22:42Z</time>
      </trkpt>
      <trkpt lat="45.8677" lon="3.91888">
        <ele>584.62</ele>
        <time>2015-05-24T13:22:44Z</time>
      </trkpt>
      <trkpt lat="45.86787" lon="3.91889">
        <ele>586.06</ele>
        <time>2015-05-24T13:23:00Z</time>
      </trkpt>
      <trkpt lat="45.86795" lon="3.91876">
        <ele>587.98</ele>
        <time>2015-05-24T13:23:15Z</time>
      </trkpt>
      <trkpt lat="45.86788" lon="3.91872">
        <ele>591.35</ele>
        <time>2015-05-24T13:23:37Z</time>
      </trkpt>
      <trkpt lat="45.86792" lon="3.91876">
        <ele>599.52</ele>
        <time>2015-05-24T13:24:14Z</time>
      </trkpt>
      <trkpt lat="45.86795" lon="3.91877">
        <ele>601.44</ele>
        <time>2015-05-24T13:24:48Z</time>
      </trkpt>
      <trkpt lat="45.86792" lon="3.91875">
        <ele>591.35</ele>
        <time>2015-05-24T13:25:19Z</time>
      </trkpt>
      <trkpt lat="45.86802" lon="3.91879">
        <ele>589.91</ele>
        <time>2015-05-24T13:25:35Z</time>
      </trkpt>
      <trkpt lat="45.86807" lon="3.9188">
        <ele>588.95</ele>
        <time>2015-05-24T13:25:46Z</time>
      </trkpt>
      <trkpt lat="45.86814" lon="3.91873">
        <ele>587.5</ele>
        <time>2015-05-24T13:26:08Z</time>
      </trkpt>
      <trkpt lat="45.86814" lon="3.91873">
        <ele>585.1</ele>
        <time>2015-05-24T13:26:32Z</time>
      </trkpt>
    </trkseg>
  </trk>
</gpx>